<?xml version="1.0" encoding="UTF-8" standalone="no" ?>
<gpx xmlns="http://www.topografix.com/GPX/1/1" xmlns:xsi="http://www.w3.org/2001/XMLSchema-instance" xsi:schemaLocation="http://www.topografix.com/GPX/1/1 http://www.topografix.com/GPX/1/1/gpx.xsd" version="1.1" creator="VisuGPX - https://www.visugpx.com">
  <metadata>
    <name>La Chapelle-de-Guinchay VTT</name>
    <desc><![CDATA[VTTSE55K199M]]></desc>
  </metadata>
  <trk>
    <name><![CDATA[La Chapelle-de-Guinchay VTT]]></name>
    <extensions>
      <line xmlns="http://www.topografix.com/GPX/gpx_style/0/2">
        <color>0000FF</color>
        <width>4</width>
      </line>
    </extensions>
    <trkseg>
      <trkpt lat="46.21236" lon="4.75634">
        <ele>192.1</ele>
      </trkpt>
      <trkpt lat="46.21246" lon="4.75624">
        <ele>191.7</ele>
      </trkpt>
      <trkpt lat="46.21275" lon="4.75644">
        <ele>190.6</ele>
      </trkpt>
      <trkpt lat="46.21332" lon="4.75683">
        <ele>189</ele>
      </trkpt>
      <trkpt lat="46.21371" lon="4.75716">
        <ele>190.2</ele>
      </trkpt>
      <trkpt lat="46.21375" lon="4.75746">
        <ele>190.5</ele>
      </trkpt>
      <trkpt lat="46.21367" lon="4.75795">
        <ele>189.9</ele>
      </trkpt>
      <trkpt lat="46.21375" lon="4.75831">
        <ele>193.80000305176</ele>
        <time>2021-04-08T15:23:21.000Z</time>
      </trkpt>
      <trkpt lat="46.21371" lon="4.7588">
        <ele>193</ele>
        <time>2021-04-08T15:23:14.000Z</time>
      </trkpt>
      <trkpt lat="46.21372" lon="4.75908">
        <ele>193</ele>
        <time>2021-04-08T15:23:09.000Z</time>
      </trkpt>
      <trkpt lat="46.2137" lon="4.75977">
        <ele>193</ele>
        <time>2021-04-08T15:23:00.000Z</time>
      </trkpt>
      <trkpt lat="46.21369" lon="4.76009">
        <ele>192.60000610352</ele>
        <time>2021-04-08T15:22:55.000Z</time>
      </trkpt>
      <trkpt lat="46.21364" lon="4.76012">
        <ele>192.39999389648</ele>
        <time>2021-04-08T15:22:53.000Z</time>
      </trkpt>
      <trkpt lat="46.21305" lon="4.7604">
        <ele>192.60000610352</ele>
        <time>2021-04-08T15:22:41.000Z</time>
      </trkpt>
      <trkpt lat="46.21263" lon="4.76092">
        <ele>189.80000305176</ele>
        <time>2021-04-08T15:22:32.000Z</time>
      </trkpt>
      <trkpt lat="46.21247" lon="4.76129">
        <ele>189</ele>
        <time>2021-04-08T15:22:27.000Z</time>
      </trkpt>
      <trkpt lat="46.21222" lon="4.76209">
        <ele>188</ele>
        <time>2021-04-08T15:22:16.000Z</time>
      </trkpt>
      <trkpt lat="46.21211" lon="4.76251">
        <ele>187.80000305176</ele>
        <time>2021-04-08T15:22:09.000Z</time>
      </trkpt>
      <trkpt lat="46.21202" lon="4.76294">
        <ele>187.60000610352</ele>
        <time>2021-04-08T15:22:04.000Z</time>
      </trkpt>
      <trkpt lat="46.21187" lon="4.76328">
        <ele>187</ele>
        <time>2021-04-08T15:21:59.000Z</time>
      </trkpt>
      <trkpt lat="46.21177" lon="4.76356">
        <ele>186.60000610352</ele>
        <time>2021-04-08T15:21:55.000Z</time>
      </trkpt>
      <trkpt lat="46.21178" lon="4.76369">
        <ele>186.60000610352</ele>
        <time>2021-04-08T15:21:51.000Z</time>
      </trkpt>
      <trkpt lat="46.21185" lon="4.76372">
        <ele>187</ele>
        <time>2021-04-08T15:21:49.000Z</time>
      </trkpt>
      <trkpt lat="46.21245" lon="4.7639">
        <ele>189.80000305176</ele>
        <time>2021-04-08T15:21:37.000Z</time>
      </trkpt>
      <trkpt lat="46.21263" lon="4.76412">
        <ele>190.60000610352</ele>
        <time>2021-04-08T15:21:30.000Z</time>
      </trkpt>
      <trkpt lat="46.21265" lon="4.76431">
        <ele>191.19999694824</ele>
        <time>2021-04-08T15:21:26.000Z</time>
      </trkpt>
      <trkpt lat="46.21269" lon="4.76451">
        <ele>192</ele>
        <time>2021-04-08T15:21:22.000Z</time>
      </trkpt>
      <trkpt lat="46.21278" lon="4.76496">
        <ele>193.60000610352</ele>
        <time>2021-04-08T15:21:13.000Z</time>
      </trkpt>
      <trkpt lat="46.21289" lon="4.76539">
        <ele>193.39999389648</ele>
        <time>2021-04-08T15:21:07.000Z</time>
      </trkpt>
      <trkpt lat="46.2129" lon="4.76565">
        <ele>193.39999389648</ele>
        <time>2021-04-08T15:21:04.000Z</time>
      </trkpt>
      <trkpt lat="46.21293" lon="4.76577">
        <ele>193.60000610352</ele>
        <time>2021-04-08T15:21:02.000Z</time>
      </trkpt>
      <trkpt lat="46.21296" lon="4.76599">
        <ele>193.80000305176</ele>
        <time>2021-04-08T15:20:57.000Z</time>
      </trkpt>
      <trkpt lat="46.21293" lon="4.76627">
        <ele>193.80000305176</ele>
        <time>2021-04-08T15:20:52.000Z</time>
      </trkpt>
      <trkpt lat="46.21292" lon="4.76634">
        <ele>193.80000305176</ele>
        <time>2021-04-08T15:20:51.000Z</time>
      </trkpt>
      <trkpt lat="46.21293" lon="4.76642">
        <ele>193.80000305176</ele>
        <time>2021-04-08T15:20:50.000Z</time>
      </trkpt>
      <trkpt lat="46.21294" lon="4.7665">
        <ele>193.80000305176</ele>
        <time>2021-04-08T15:20:49.000Z</time>
      </trkpt>
      <trkpt lat="46.21295" lon="4.76657">
        <ele>193.80000305176</ele>
        <time>2021-04-08T15:20:48.000Z</time>
      </trkpt>
      <trkpt lat="46.21286" lon="4.76675">
        <ele>193.19999694824</ele>
        <time>2021-04-08T15:20:44.000Z</time>
      </trkpt>
      <trkpt lat="46.21228" lon="4.7669">
        <ele>191.60000610352</ele>
        <time>2021-04-08T15:20:33.000Z</time>
      </trkpt>
      <trkpt lat="46.21177" lon="4.76705">
        <ele>190</ele>
        <time>2021-04-08T15:20:21.000Z</time>
      </trkpt>
      <trkpt lat="46.2114" lon="4.76705">
        <ele>190</ele>
        <time>2021-04-08T15:20:14.000Z</time>
      </trkpt>
      <trkpt lat="46.21131" lon="4.76697">
        <ele>189.80000305176</ele>
        <time>2021-04-08T15:20:12.000Z</time>
      </trkpt>
      <trkpt lat="46.21117" lon="4.76696">
        <ele>189.80000305176</ele>
        <time>2021-04-08T15:20:08.000Z</time>
      </trkpt>
      <trkpt lat="46.21114" lon="4.76706">
        <ele>190.19999694824</ele>
        <time>2021-04-08T15:20:06.000Z</time>
      </trkpt>
      <trkpt lat="46.21097" lon="4.7675">
        <ele>190.19999694824</ele>
        <time>2021-04-08T15:19:59.000Z</time>
      </trkpt>
      <trkpt lat="46.21074" lon="4.76765">
        <ele>189.39999389648</ele>
        <time>2021-04-08T15:19:53.000Z</time>
      </trkpt>
      <trkpt lat="46.21064" lon="4.76759">
        <ele>188.19999694824</ele>
        <time>2021-04-08T15:19:51.000Z</time>
      </trkpt>
      <trkpt lat="46.21054" lon="4.76751">
        <ele>187.19999694824</ele>
        <time>2021-04-08T15:19:49.000Z</time>
      </trkpt>
      <trkpt lat="46.21015" lon="4.76714">
        <ele>186</ele>
        <time>2021-04-08T15:19:41.000Z</time>
      </trkpt>
      <trkpt lat="46.20989" lon="4.76709">
        <ele>185.80000305176</ele>
        <time>2021-04-08T15:19:35.000Z</time>
      </trkpt>
      <trkpt lat="46.20986" lon="4.76716">
        <ele>185.80000305176</ele>
        <time>2021-04-08T15:19:34.000Z</time>
      </trkpt>
      <trkpt lat="46.20948" lon="4.76854">
        <ele>185.39999389648</ele>
        <time>2021-04-08T15:19:17.000Z</time>
      </trkpt>
      <trkpt lat="46.20921" lon="4.76969">
        <ele>185.39999389648</ele>
        <time>2021-04-08T15:19:03.000Z</time>
      </trkpt>
      <trkpt lat="46.20919" lon="4.76975">
        <ele>185.39999389648</ele>
        <time>2021-04-08T15:19:02.000Z</time>
      </trkpt>
      <trkpt lat="46.20908" lon="4.76985">
        <ele>185</ele>
        <time>2021-04-08T15:18:53.000Z</time>
      </trkpt>
      <trkpt lat="46.20906" lon="4.76984">
        <ele>184.80000305176</ele>
        <time>2021-04-08T15:18:47.000Z</time>
      </trkpt>
      <trkpt lat="46.20875" lon="4.76998">
        <ele>183.80000305176</ele>
        <time>2021-04-08T15:18:37.000Z</time>
      </trkpt>
      <trkpt lat="46.20868" lon="4.77008">
        <ele>183.60000610352</ele>
        <time>2021-04-08T15:18:35.000Z</time>
      </trkpt>
      <trkpt lat="46.20827" lon="4.77076">
        <ele>184</ele>
        <time>2021-04-08T15:18:24.000Z</time>
      </trkpt>
      <trkpt lat="46.20807" lon="4.77099">
        <ele>185</ele>
        <time>2021-04-08T15:18:18.000Z</time>
      </trkpt>
      <trkpt lat="46.208" lon="4.77107">
        <ele>185</ele>
        <time>2021-04-08T15:17:59.000Z</time>
      </trkpt>
      <trkpt lat="46.20797" lon="4.77108">
        <ele>185</ele>
        <time>2021-04-08T15:17:54.000Z</time>
      </trkpt>
      <trkpt lat="46.20793" lon="4.77109">
        <ele>185</ele>
        <time>2021-04-08T15:17:53.000Z</time>
      </trkpt>
      <trkpt lat="46.20784" lon="4.771">
        <ele>183.1</ele>
      </trkpt>
      <trkpt lat="46.20734" lon="4.7707">
        <ele>182.4</ele>
      </trkpt>
      <trkpt lat="46.20684" lon="4.77044">
        <ele>181.6</ele>
      </trkpt>
      <trkpt lat="46.2064" lon="4.7702">
        <ele>183</ele>
      </trkpt>
      <trkpt lat="46.20625" lon="4.77027">
        <ele>183.5</ele>
      </trkpt>
      <trkpt lat="46.20601" lon="4.77049">
        <ele>184.1</ele>
      </trkpt>
      <trkpt lat="46.20575" lon="4.7707">
        <ele>184.7</ele>
      </trkpt>
      <trkpt lat="46.20569" lon="4.77097">
        <ele>183.8</ele>
      </trkpt>
      <trkpt lat="46.20559" lon="4.77137">
        <ele>182.1</ele>
      </trkpt>
      <trkpt lat="46.20542" lon="4.77178">
        <ele>181.2</ele>
      </trkpt>
      <trkpt lat="46.20504" lon="4.77258">
        <ele>180.6</ele>
      </trkpt>
      <trkpt lat="46.20473" lon="4.77322">
        <ele>179.6</ele>
      </trkpt>
      <trkpt lat="46.20417" lon="4.77431">
        <ele>177.7</ele>
      </trkpt>
      <trkpt lat="46.20344" lon="4.77521">
        <ele>176.1</ele>
      </trkpt>
      <trkpt lat="46.20275" lon="4.77677">
        <ele>173.6</ele>
      </trkpt>
      <trkpt lat="46.20243" lon="4.77734">
        <ele>173.3</ele>
      </trkpt>
      <trkpt lat="46.20244" lon="4.77766">
        <ele>173.2</ele>
      </trkpt>
      <trkpt lat="46.20231" lon="4.77818">
        <ele>173.5</ele>
      </trkpt>
      <trkpt lat="46.20196" lon="4.77971">
        <ele>174.1</ele>
      </trkpt>
      <trkpt lat="46.20174" lon="4.78078">
        <ele>173.2</ele>
      </trkpt>
      <trkpt lat="46.20177" lon="4.78113">
        <ele>173.2</ele>
      </trkpt>
      <trkpt lat="46.20181" lon="4.78131">
        <ele>173.2</ele>
      </trkpt>
      <trkpt lat="46.20195" lon="4.78159">
        <ele>173.4</ele>
      </trkpt>
      <trkpt lat="46.20215" lon="4.78178">
        <ele>173.6</ele>
      </trkpt>
      <trkpt lat="46.20243" lon="4.78191">
        <ele>173.9</ele>
      </trkpt>
      <trkpt lat="46.20254" lon="4.78196">
        <ele>174</ele>
      </trkpt>
      <trkpt lat="46.2025" lon="4.78205">
        <ele>174</ele>
      </trkpt>
      <trkpt lat="46.20239" lon="4.78211">
        <ele>174.80000305176</ele>
        <time>2021-04-08T15:12:56.000Z</time>
      </trkpt>
      <trkpt lat="46.20229" lon="4.7821">
        <ele>174.60000610352</ele>
        <time>2021-04-08T15:12:54.000Z</time>
      </trkpt>
      <trkpt lat="46.20211" lon="4.78205">
        <ele>174</ele>
        <time>2021-04-08T15:12:50.000Z</time>
      </trkpt>
      <trkpt lat="46.20186" lon="4.78181">
        <ele>174.80000305176</ele>
        <time>2021-04-08T15:12:44.000Z</time>
      </trkpt>
      <trkpt lat="46.20169" lon="4.78151">
        <ele>174.60000610352</ele>
        <time>2021-04-08T15:12:39.000Z</time>
      </trkpt>
      <trkpt lat="46.20157" lon="4.78123">
        <ele>174.80000305176</ele>
        <time>2021-04-08T15:12:35.000Z</time>
      </trkpt>
      <trkpt lat="46.20147" lon="4.78078">
        <ele>175.19999694824</ele>
        <time>2021-04-08T15:12:29.000Z</time>
      </trkpt>
      <trkpt lat="46.20142" lon="4.78064">
        <ele>174.80000305176</ele>
        <time>2021-04-08T15:12:27.000Z</time>
      </trkpt>
      <trkpt lat="46.20119" lon="4.78034">
        <ele>174.60000610352</ele>
        <time>2021-04-08T15:12:21.000Z</time>
      </trkpt>
      <trkpt lat="46.20069" lon="4.78004">
        <ele>174.80000305176</ele>
        <time>2021-04-08T15:12:11.000Z</time>
      </trkpt>
      <trkpt lat="46.20022" lon="4.77983">
        <ele>174.80000305176</ele>
        <time>2021-04-08T15:12:02.000Z</time>
      </trkpt>
      <trkpt lat="46.20002" lon="4.77969">
        <ele>174.39999389648</ele>
        <time>2021-04-08T15:11:58.000Z</time>
      </trkpt>
      <trkpt lat="46.19954" lon="4.77927">
        <ele>172.60000610352</ele>
        <time>2021-04-08T15:11:48.000Z</time>
      </trkpt>
      <trkpt lat="46.19914" lon="4.77909">
        <ele>171.19999694824</ele>
        <time>2021-04-08T15:11:41.000Z</time>
      </trkpt>
      <trkpt lat="46.1982" lon="4.77865">
        <ele>171.19999694824</ele>
        <time>2021-04-08T15:11:25.000Z</time>
      </trkpt>
      <trkpt lat="46.19722" lon="4.77818">
        <ele>172.80000305176</ele>
        <time>2021-04-08T15:11:08.000Z</time>
      </trkpt>
      <trkpt lat="46.19711" lon="4.77811">
        <ele>173</ele>
        <time>2021-04-08T15:11:06.000Z</time>
      </trkpt>
      <trkpt lat="46.19659" lon="4.77786">
        <ele>172</ele>
        <time>2021-04-08T15:10:57.000Z</time>
      </trkpt>
      <trkpt lat="46.19557" lon="4.77741">
        <ele>172.19999694824</ele>
        <time>2021-04-08T15:10:39.000Z</time>
      </trkpt>
      <trkpt lat="46.19514" lon="4.77718">
        <ele>172.2</ele>
      </trkpt>
      <trkpt lat="46.19506" lon="4.77742">
        <ele>172.7</ele>
      </trkpt>
      <trkpt lat="46.19473" lon="4.77828">
        <ele>171.7</ele>
      </trkpt>
      <trkpt lat="46.19469" lon="4.77845">
        <ele>171.8</ele>
      </trkpt>
      <trkpt lat="46.19437" lon="4.77964">
        <ele>172.9</ele>
      </trkpt>
      <trkpt lat="46.19428" lon="4.7799">
        <ele>172.9</ele>
      </trkpt>
      <trkpt lat="46.19421" lon="4.77992">
        <ele>175.60000610352</ele>
        <time>2021-04-08T15:09:56.000Z</time>
      </trkpt>
      <trkpt lat="46.19415" lon="4.77984">
        <ele>172.9</ele>
      </trkpt>
      <trkpt lat="46.19339" lon="4.7794">
        <ele>174</ele>
        <time>2021-04-08T15:09:41.000Z</time>
      </trkpt>
      <trkpt lat="46.19293" lon="4.77917">
        <ele>174.19999694824</ele>
        <time>2021-04-08T15:09:33.000Z</time>
      </trkpt>
      <trkpt lat="46.19194" lon="4.77867">
        <ele>174</ele>
        <time>2021-04-08T15:09:16.000Z</time>
      </trkpt>
      <trkpt lat="46.19102" lon="4.77844">
        <ele>171.9</ele>
      </trkpt>
      <trkpt lat="46.19005" lon="4.77828">
        <ele>171.1</ele>
      </trkpt>
      <trkpt lat="46.1892" lon="4.77818">
        <ele>173.19999694824</ele>
        <time>2021-04-08T15:08:31.000Z</time>
      </trkpt>
      <trkpt lat="46.18848" lon="4.77819">
        <ele>171.6</ele>
      </trkpt>
      <trkpt lat="46.18835" lon="4.77818">
        <ele>171.6</ele>
      </trkpt>
      <trkpt lat="46.18831" lon="4.77801">
        <ele>172.1</ele>
      </trkpt>
      <trkpt lat="46.18828" lon="4.77776">
        <ele>174.80000305176</ele>
        <time>2021-04-08T15:08:10.000Z</time>
      </trkpt>
      <trkpt lat="46.18818" lon="4.77745">
        <ele>174</ele>
      </trkpt>
      <trkpt lat="46.18812" lon="4.77754">
        <ele>173.9</ele>
      </trkpt>
      <trkpt lat="46.1882" lon="4.77797">
        <ele>172.2</ele>
      </trkpt>
      <trkpt lat="46.1882" lon="4.77834">
        <ele>170.8</ele>
      </trkpt>
      <trkpt lat="46.18821" lon="4.77981">
        <ele>167.7</ele>
      </trkpt>
      <trkpt lat="46.18822" lon="4.7809">
        <ele>167.1</ele>
      </trkpt>
      <trkpt lat="46.18822" lon="4.78178">
        <ele>168.4</ele>
      </trkpt>
      <trkpt lat="46.18807" lon="4.78207">
        <ele>168.8</ele>
      </trkpt>
      <trkpt lat="46.1878" lon="4.78219">
        <ele>169.80000305176</ele>
        <time>2021-04-08T15:07:03.000Z</time>
      </trkpt>
      <trkpt lat="46.18781" lon="4.78197">
        <ele>169.80000305176</ele>
        <time>2021-04-08T15:06:55.000Z</time>
      </trkpt>
      <trkpt lat="46.18788" lon="4.78164">
        <ele>170</ele>
        <time>2021-04-08T15:06:46.000Z</time>
      </trkpt>
      <trkpt lat="46.1879" lon="4.78155">
        <ele>170.19999694824</ele>
        <time>2021-04-08T15:06:44.000Z</time>
      </trkpt>
      <trkpt lat="46.18787" lon="4.78143">
        <ele>170.60000610352</ele>
        <time>2021-04-08T15:06:40.000Z</time>
      </trkpt>
      <trkpt lat="46.1878" lon="4.78146">
        <ele>171.19999694824</ele>
        <time>2021-04-08T15:05:54.000Z</time>
      </trkpt>
      <trkpt lat="46.18756" lon="4.78149">
        <ele>172</ele>
        <time>2021-04-08T15:05:44.000Z</time>
      </trkpt>
      <trkpt lat="46.18737" lon="4.78154">
        <ele>171.80000305176</ele>
        <time>2021-04-08T15:05:40.000Z</time>
      </trkpt>
      <trkpt lat="46.18684" lon="4.78158">
        <ele>171.39999389648</ele>
        <time>2021-04-08T15:05:30.000Z</time>
      </trkpt>
      <trkpt lat="46.1863" lon="4.78165">
        <ele>172.60000610352</ele>
        <time>2021-04-08T15:05:19.000Z</time>
      </trkpt>
      <trkpt lat="46.1861" lon="4.78171">
        <ele>173.80000305176</ele>
        <time>2021-04-08T15:05:15.000Z</time>
      </trkpt>
      <trkpt lat="46.18587" lon="4.78173">
        <ele>174.60000610352</ele>
        <time>2021-04-08T15:05:11.000Z</time>
      </trkpt>
      <trkpt lat="46.18543" lon="4.78181">
        <ele>173.80000305176</ele>
        <time>2021-04-08T15:05:03.000Z</time>
      </trkpt>
      <trkpt lat="46.18514" lon="4.7818">
        <ele>172.39999389648</ele>
        <time>2021-04-08T15:04:58.000Z</time>
      </trkpt>
      <trkpt lat="46.18489" lon="4.78183">
        <ele>172.60000610352</ele>
        <time>2021-04-08T15:04:54.000Z</time>
      </trkpt>
      <trkpt lat="46.18468" lon="4.78188">
        <ele>172.60000610352</ele>
        <time>2021-04-08T15:04:50.000Z</time>
      </trkpt>
      <trkpt lat="46.18448" lon="4.78192">
        <ele>171.80000305176</ele>
        <time>2021-04-08T15:04:46.000Z</time>
      </trkpt>
      <trkpt lat="46.18424" lon="4.78191">
        <ele>170.60000610352</ele>
        <time>2021-04-08T15:04:41.000Z</time>
      </trkpt>
      <trkpt lat="46.18359" lon="4.78196">
        <ele>170.60000610352</ele>
        <time>2021-04-08T15:04:29.000Z</time>
      </trkpt>
      <trkpt lat="46.18329" lon="4.78197">
        <ele>171.80000305176</ele>
        <time>2021-04-08T15:04:24.000Z</time>
      </trkpt>
      <trkpt lat="46.183" lon="4.78197">
        <ele>171.80000305176</ele>
        <time>2021-04-08T15:04:19.000Z</time>
      </trkpt>
      <trkpt lat="46.1827" lon="4.78198">
        <ele>171.80000305176</ele>
        <time>2021-04-08T15:04:14.000Z</time>
      </trkpt>
      <trkpt lat="46.18204" lon="4.78203">
        <ele>173</ele>
        <time>2021-04-08T15:04:03.000Z</time>
      </trkpt>
      <trkpt lat="46.18143" lon="4.78205">
        <ele>171.39999389648</ele>
        <time>2021-04-08T15:03:52.000Z</time>
      </trkpt>
      <trkpt lat="46.18099" lon="4.78207">
        <ele>172</ele>
        <time>2021-04-08T15:03:44.000Z</time>
      </trkpt>
      <trkpt lat="46.18065" lon="4.78206">
        <ele>172.80000305176</ele>
        <time>2021-04-08T15:03:38.000Z</time>
      </trkpt>
      <trkpt lat="46.18043" lon="4.78208">
        <ele>172.39999389648</ele>
        <time>2021-04-08T15:03:34.000Z</time>
      </trkpt>
      <trkpt lat="46.17991" lon="4.78211">
        <ele>171</ele>
        <time>2021-04-08T15:03:25.000Z</time>
      </trkpt>
      <trkpt lat="46.17956" lon="4.78213">
        <ele>171.80000305176</ele>
        <time>2021-04-08T15:03:19.000Z</time>
      </trkpt>
      <trkpt lat="46.17913" lon="4.78217">
        <ele>172.19999694824</ele>
        <time>2021-04-08T15:03:11.000Z</time>
      </trkpt>
      <trkpt lat="46.17828" lon="4.78223">
        <ele>169.19999694824</ele>
        <time>2021-04-08T15:02:57.000Z</time>
      </trkpt>
      <trkpt lat="46.17755" lon="4.78226">
        <ele>169.60000610352</ele>
        <time>2021-04-08T15:02:45.000Z</time>
      </trkpt>
      <trkpt lat="46.17699" lon="4.78234">
        <ele>168.60000610352</ele>
        <time>2021-04-08T15:02:35.000Z</time>
      </trkpt>
      <trkpt lat="46.17653" lon="4.78243">
        <ele>170</ele>
        <time>2021-04-08T15:02:27.000Z</time>
      </trkpt>
      <trkpt lat="46.17632" lon="4.78249">
        <ele>171.19999694824</ele>
        <time>2021-04-08T15:02:23.000Z</time>
      </trkpt>
      <trkpt lat="46.17615" lon="4.7825">
        <ele>171.60000610352</ele>
        <time>2021-04-08T15:02:19.000Z</time>
      </trkpt>
      <trkpt lat="46.17581" lon="4.78252">
        <ele>172.60000610352</ele>
        <time>2021-04-08T15:02:13.000Z</time>
      </trkpt>
      <trkpt lat="46.17565" lon="4.78258">
        <ele>172.60000610352</ele>
        <time>2021-04-08T15:02:10.000Z</time>
      </trkpt>
      <trkpt lat="46.17555" lon="4.7826">
        <ele>172.19999694824</ele>
        <time>2021-04-08T15:02:08.000Z</time>
      </trkpt>
      <trkpt lat="46.17537" lon="4.78263">
        <ele>171</ele>
        <time>2021-04-08T15:02:05.000Z</time>
      </trkpt>
      <trkpt lat="46.17497" lon="4.78273">
        <ele>169.60000610352</ele>
        <time>2021-04-08T15:01:58.000Z</time>
      </trkpt>
      <trkpt lat="46.17491" lon="4.78274">
        <ele>169.39999389648</ele>
        <time>2021-04-08T15:01:57.000Z</time>
      </trkpt>
      <trkpt lat="46.17414" lon="4.78293">
        <ele>169.80000305176</ele>
        <time>2021-04-08T15:01:43.000Z</time>
      </trkpt>
      <trkpt lat="46.17356" lon="4.78308">
        <ele>170.80000305176</ele>
        <time>2021-04-08T15:01:33.000Z</time>
      </trkpt>
      <trkpt lat="46.17305" lon="4.7833">
        <ele>170.39999389648</ele>
        <time>2021-04-08T15:01:24.000Z</time>
      </trkpt>
      <trkpt lat="46.17209" lon="4.7838">
        <ele>171</ele>
        <time>2021-04-08T15:01:07.000Z</time>
      </trkpt>
      <trkpt lat="46.17172" lon="4.78401">
        <ele>168.80000305176</ele>
        <time>2021-04-08T15:01:00.000Z</time>
      </trkpt>
      <trkpt lat="46.17163" lon="4.78407">
        <ele>169</ele>
        <time>2021-04-08T15:00:58.000Z</time>
      </trkpt>
      <trkpt lat="46.17066" lon="4.78465">
        <ele>171.39999389648</ele>
        <time>2021-04-08T15:00:40.000Z</time>
      </trkpt>
      <trkpt lat="46.17045" lon="4.78479">
        <ele>172.19999694824</ele>
        <time>2021-04-08T15:00:36.000Z</time>
      </trkpt>
      <trkpt lat="46.1703" lon="4.7849">
        <ele>172</ele>
        <time>2021-04-08T15:00:33.000Z</time>
      </trkpt>
      <trkpt lat="46.16937" lon="4.78547">
        <ele>170</ele>
        <time>2021-04-08T15:00:15.000Z</time>
      </trkpt>
      <trkpt lat="46.16854" lon="4.78602">
        <ele>172</ele>
        <time>2021-04-08T14:59:59.000Z</time>
      </trkpt>
      <trkpt lat="46.16826" lon="4.78615">
        <ele>173</ele>
        <time>2021-04-08T14:59:54.000Z</time>
      </trkpt>
      <trkpt lat="46.16803" lon="4.78638">
        <ele>173.80000305176</ele>
        <time>2021-04-08T14:59:49.000Z</time>
      </trkpt>
      <trkpt lat="46.16725" lon="4.78722">
        <ele>169.80000305176</ele>
        <time>2021-04-08T14:59:32.000Z</time>
      </trkpt>
      <trkpt lat="46.1671" lon="4.78749">
        <ele>169.80000305176</ele>
        <time>2021-04-08T14:59:28.000Z</time>
      </trkpt>
      <trkpt lat="46.16639" lon="4.78888">
        <ele>170</ele>
        <time>2021-04-08T14:59:08.000Z</time>
      </trkpt>
      <trkpt lat="46.1658" lon="4.78998">
        <ele>169</ele>
        <time>2021-04-08T14:58:51.000Z</time>
      </trkpt>
      <trkpt lat="46.16574" lon="4.7901">
        <ele>169</ele>
        <time>2021-04-08T14:58:49.000Z</time>
      </trkpt>
      <trkpt lat="46.16587" lon="4.79062">
        <ele>170</ele>
        <time>2021-04-08T14:58:40.000Z</time>
      </trkpt>
      <trkpt lat="46.1659" lon="4.79069">
        <ele>170</ele>
        <time>2021-04-08T14:58:39.000Z</time>
      </trkpt>
      <trkpt lat="46.16613" lon="4.79152">
        <ele>171.80000305176</ele>
        <time>2021-04-08T14:58:24.000Z</time>
      </trkpt>
      <trkpt lat="46.16614" lon="4.79158">
        <ele>172</ele>
        <time>2021-04-08T14:58:23.000Z</time>
      </trkpt>
      <trkpt lat="46.16615" lon="4.7917">
        <ele>172</ele>
        <time>2021-04-08T14:58:21.000Z</time>
      </trkpt>
      <trkpt lat="46.16617" lon="4.79179">
        <ele>172</ele>
        <time>2021-04-08T14:58:19.000Z</time>
      </trkpt>
      <trkpt lat="46.16628" lon="4.79237">
        <ele>172.19999694824</ele>
        <time>2021-04-08T14:58:07.000Z</time>
      </trkpt>
      <trkpt lat="46.16629" lon="4.79243">
        <ele>172.39999389648</ele>
        <time>2021-04-08T14:58:06.000Z</time>
      </trkpt>
      <trkpt lat="46.16639" lon="4.79282">
        <ele>172.39999389648</ele>
        <time>2021-04-08T14:57:58.000Z</time>
      </trkpt>
      <trkpt lat="46.16653" lon="4.79319">
        <ele>171.19999694824</ele>
        <time>2021-04-08T14:57:50.000Z</time>
      </trkpt>
      <trkpt lat="46.16674" lon="4.79374">
        <ele>171.39999389648</ele>
        <time>2021-04-08T14:57:38.000Z</time>
      </trkpt>
      <trkpt lat="46.16685" lon="4.79394">
        <ele>173.60000610352</ele>
        <time>2021-04-08T14:57:34.000Z</time>
      </trkpt>
      <trkpt lat="46.16737" lon="4.79455">
        <ele>180.19999694824</ele>
        <time>2021-04-08T14:57:22.000Z</time>
      </trkpt>
      <trkpt lat="46.16759" lon="4.79483">
        <ele>179.60000610352</ele>
        <time>2021-04-08T14:57:17.000Z</time>
      </trkpt>
      <trkpt lat="46.16776" lon="4.79502">
        <ele>178.39999389648</ele>
        <time>2021-04-08T14:57:13.000Z</time>
      </trkpt>
      <trkpt lat="46.16794" lon="4.79523">
        <ele>177.39999389648</ele>
        <time>2021-04-08T14:57:09.000Z</time>
      </trkpt>
      <trkpt lat="46.16802" lon="4.79534">
        <ele>176.80000305176</ele>
        <time>2021-04-08T14:57:07.000Z</time>
      </trkpt>
      <trkpt lat="46.16844" lon="4.79582">
        <ele>176.60000610352</ele>
        <time>2021-04-08T14:56:58.000Z</time>
      </trkpt>
      <trkpt lat="46.16853" lon="4.79593">
        <ele>177</ele>
        <time>2021-04-08T14:56:56.000Z</time>
      </trkpt>
      <trkpt lat="46.16862" lon="4.79603">
        <ele>177.39999389648</ele>
        <time>2021-04-08T14:56:54.000Z</time>
      </trkpt>
      <trkpt lat="46.16887" lon="4.79633">
        <ele>178.19999694824</ele>
        <time>2021-04-08T14:56:48.000Z</time>
      </trkpt>
      <trkpt lat="46.16907" lon="4.79657">
        <ele>178.39999389648</ele>
        <time>2021-04-08T14:56:43.000Z</time>
      </trkpt>
      <trkpt lat="46.16941" lon="4.79699">
        <ele>177.60000610352</ele>
        <time>2021-04-08T14:56:35.000Z</time>
      </trkpt>
      <trkpt lat="46.1698" lon="4.79744">
        <ele>175.39999389648</ele>
        <time>2021-04-08T14:56:26.000Z</time>
      </trkpt>
      <trkpt lat="46.16992" lon="4.79762">
        <ele>175.19999694824</ele>
        <time>2021-04-08T14:56:22.000Z</time>
      </trkpt>
      <trkpt lat="46.17038" lon="4.79819">
        <ele>178.80000305176</ele>
        <time>2021-04-08T14:56:11.000Z</time>
      </trkpt>
      <trkpt lat="46.17057" lon="4.79846">
        <ele>179.39999389648</ele>
        <time>2021-04-08T14:56:06.000Z</time>
      </trkpt>
      <trkpt lat="46.17083" lon="4.79913">
        <ele>178.19999694824</ele>
        <time>2021-04-08T14:55:56.000Z</time>
      </trkpt>
      <trkpt lat="46.17084" lon="4.79933">
        <ele>178.39999389648</ele>
        <time>2021-04-08T14:55:53.000Z</time>
      </trkpt>
      <trkpt lat="46.17088" lon="4.79943">
        <ele>177.80000305176</ele>
        <time>2021-04-08T14:55:51.000Z</time>
      </trkpt>
      <trkpt lat="46.17088" lon="4.79948">
        <ele>177.39999389648</ele>
        <time>2021-04-08T14:55:50.000Z</time>
      </trkpt>
      <trkpt lat="46.17101" lon="4.8003">
        <ele>174</ele>
        <time>2021-04-08T14:55:36.000Z</time>
      </trkpt>
      <trkpt lat="46.17103" lon="4.80038">
        <ele>174</ele>
        <time>2021-04-08T14:55:35.000Z</time>
      </trkpt>
      <trkpt lat="46.17124" lon="4.80133">
        <ele>174.1</ele>
      </trkpt>
      <trkpt lat="46.17128" lon="4.80148">
        <ele>174.3</ele>
      </trkpt>
      <trkpt lat="46.17142" lon="4.802">
        <ele>175.1</ele>
      </trkpt>
      <trkpt lat="46.1716" lon="4.80275">
        <ele>174.6</ele>
      </trkpt>
      <trkpt lat="46.17171" lon="4.8033">
        <ele>173.2</ele>
      </trkpt>
      <trkpt lat="46.17197" lon="4.80411">
        <ele>173.7</ele>
      </trkpt>
      <trkpt lat="46.17206" lon="4.80436">
        <ele>174.80000305176</ele>
        <time>2021-04-08T14:54:22.000Z</time>
      </trkpt>
      <trkpt lat="46.17185" lon="4.80451">
        <ele>173.9</ele>
      </trkpt>
      <trkpt lat="46.17154" lon="4.80478">
        <ele>173.9</ele>
      </trkpt>
      <trkpt lat="46.1714" lon="4.80487">
        <ele>176.60000610352</ele>
        <time>2021-04-08T14:53:55.000Z</time>
      </trkpt>
      <trkpt lat="46.17139" lon="4.8048">
        <ele>176.39999389648</ele>
        <time>2021-04-08T14:53:52.000Z</time>
      </trkpt>
      <trkpt lat="46.17123" lon="4.80447">
        <ele>177.39999389648</ele>
        <time>2021-04-08T14:53:44.000Z</time>
      </trkpt>
      <trkpt lat="46.17105" lon="4.80429">
        <ele>178.80000305176</ele>
        <time>2021-04-08T14:53:39.000Z</time>
      </trkpt>
      <trkpt lat="46.17068" lon="4.80409">
        <ele>174.5</ele>
      </trkpt>
      <trkpt lat="46.1703" lon="4.80397">
        <ele>173.1</ele>
      </trkpt>
      <trkpt lat="46.16967" lon="4.80372">
        <ele>172.39999389648</ele>
        <time>2021-04-08T14:53:09.000Z</time>
      </trkpt>
      <trkpt lat="46.16943" lon="4.80378">
        <ele>170.60000610352</ele>
        <time>2021-04-08T14:53:03.000Z</time>
      </trkpt>
      <trkpt lat="46.16923" lon="4.80409">
        <ele>170</ele>
        <time>2021-04-08T14:52:57.000Z</time>
      </trkpt>
      <trkpt lat="46.16889" lon="4.80407">
        <ele>170.60000610352</ele>
        <time>2021-04-08T14:52:50.000Z</time>
      </trkpt>
      <trkpt lat="46.16873" lon="4.80402">
        <ele>171</ele>
        <time>2021-04-08T14:52:46.000Z</time>
      </trkpt>
      <trkpt lat="46.16866" lon="4.80401">
        <ele>171</ele>
        <time>2021-04-08T14:52:44.000Z</time>
      </trkpt>
      <trkpt lat="46.16862" lon="4.80402">
        <ele>171</ele>
        <time>2021-04-08T14:52:43.000Z</time>
      </trkpt>
      <trkpt lat="46.16856" lon="4.80406">
        <ele>171</ele>
        <time>2021-04-08T14:52:41.000Z</time>
      </trkpt>
      <trkpt lat="46.16852" lon="4.8041">
        <ele>171</ele>
        <time>2021-04-08T14:52:40.000Z</time>
      </trkpt>
      <trkpt lat="46.16839" lon="4.8043">
        <ele>171</ele>
        <time>2021-04-08T14:52:36.000Z</time>
      </trkpt>
      <trkpt lat="46.16819" lon="4.80443">
        <ele>171</ele>
        <time>2021-04-08T14:52:32.000Z</time>
      </trkpt>
      <trkpt lat="46.16803" lon="4.80439">
        <ele>171</ele>
        <time>2021-04-08T14:52:29.000Z</time>
      </trkpt>
      <trkpt lat="46.16758" lon="4.80424">
        <ele>171.60000610352</ele>
        <time>2021-04-08T14:52:21.000Z</time>
      </trkpt>
      <trkpt lat="46.16736" lon="4.80424">
        <ele>170.80000305176</ele>
        <time>2021-04-08T14:52:17.000Z</time>
      </trkpt>
      <trkpt lat="46.16719" lon="4.80425">
        <ele>170.19999694824</ele>
        <time>2021-04-08T14:52:14.000Z</time>
      </trkpt>
      <trkpt lat="46.16696" lon="4.80431">
        <ele>169.39999389648</ele>
        <time>2021-04-08T14:52:10.000Z</time>
      </trkpt>
      <trkpt lat="46.16667" lon="4.80442">
        <ele>169.39999389648</ele>
        <time>2021-04-08T14:52:05.000Z</time>
      </trkpt>
      <trkpt lat="46.16569" lon="4.80502">
        <ele>169</ele>
        <time>2021-04-08T14:51:47.000Z</time>
      </trkpt>
      <trkpt lat="46.16546" lon="4.8051">
        <ele>169</ele>
        <time>2021-04-08T14:51:43.000Z</time>
      </trkpt>
      <trkpt lat="46.16478" lon="4.8056">
        <ele>171</ele>
        <time>2021-04-08T14:51:30.000Z</time>
      </trkpt>
      <trkpt lat="46.16393" lon="4.80618">
        <ele>171.60000610352</ele>
        <time>2021-04-08T14:51:14.000Z</time>
      </trkpt>
      <trkpt lat="46.16338" lon="4.8065">
        <ele>171.39999389648</ele>
        <time>2021-04-08T14:51:03.000Z</time>
      </trkpt>
      <trkpt lat="46.16264" lon="4.80701">
        <ele>168.80000305176</ele>
        <time>2021-04-08T14:50:47.000Z</time>
      </trkpt>
      <trkpt lat="46.16243" lon="4.80712">
        <ele>168.39999389648</ele>
        <time>2021-04-08T14:50:43.000Z</time>
      </trkpt>
      <trkpt lat="46.16185" lon="4.80715">
        <ele>168.39999389648</ele>
        <time>2021-04-08T14:50:33.000Z</time>
      </trkpt>
      <trkpt lat="46.16138" lon="4.80719">
        <ele>170.19999694824</ele>
        <time>2021-04-08T14:50:25.000Z</time>
      </trkpt>
      <trkpt lat="46.16068" lon="4.80731">
        <ele>169.80000305176</ele>
        <time>2021-04-08T14:50:13.000Z</time>
      </trkpt>
      <trkpt lat="46.1603" lon="4.80742">
        <ele>169</ele>
        <time>2021-04-08T14:50:06.000Z</time>
      </trkpt>
      <trkpt lat="46.16013" lon="4.8075">
        <ele>168.19999694824</ele>
        <time>2021-04-08T14:50:03.000Z</time>
      </trkpt>
      <trkpt lat="46.15994" lon="4.80767">
        <ele>168.80000305176</ele>
        <time>2021-04-08T14:49:59.000Z</time>
      </trkpt>
      <trkpt lat="46.15978" lon="4.80791">
        <ele>169.60000610352</ele>
        <time>2021-04-08T14:49:55.000Z</time>
      </trkpt>
      <trkpt lat="46.15944" lon="4.8081">
        <ele>170.80000305176</ele>
        <time>2021-04-08T14:49:49.000Z</time>
      </trkpt>
      <trkpt lat="46.15906" lon="4.80832">
        <ele>171</ele>
        <time>2021-04-08T14:49:42.000Z</time>
      </trkpt>
      <trkpt lat="46.15847" lon="4.80867">
        <ele>172</ele>
        <time>2021-04-08T14:49:28.000Z</time>
      </trkpt>
      <trkpt lat="46.1584" lon="4.80874">
        <ele>172.19999694824</ele>
        <time>2021-04-08T14:49:07.000Z</time>
      </trkpt>
      <trkpt lat="46.1584" lon="4.80876">
        <ele>172.19999694824</ele>
        <time>2021-04-08T14:49:02.000Z</time>
      </trkpt>
      <trkpt lat="46.15842" lon="4.80931">
        <ele>171.19999694824</ele>
        <time>2021-04-08T14:48:52.000Z</time>
      </trkpt>
      <trkpt lat="46.15859" lon="4.81053">
        <ele>170.19999694824</ele>
        <time>2021-04-08T14:48:37.000Z</time>
      </trkpt>
      <trkpt lat="46.15863" lon="4.81078">
        <ele>170.39999389648</ele>
        <time>2021-04-08T14:48:34.000Z</time>
      </trkpt>
      <trkpt lat="46.15883" lon="4.81216">
        <ele>171.80000305176</ele>
        <time>2021-04-08T14:48:18.000Z</time>
      </trkpt>
      <trkpt lat="46.15887" lon="4.81234">
        <ele>173</ele>
        <time>2021-04-08T14:48:16.000Z</time>
      </trkpt>
      <trkpt lat="46.15898" lon="4.81286">
        <ele>176</ele>
        <time>2021-04-08T14:48:10.000Z</time>
      </trkpt>
      <trkpt lat="46.15907" lon="4.8133">
        <ele>176</ele>
        <time>2021-04-08T14:48:05.000Z</time>
      </trkpt>
      <trkpt lat="46.15909" lon="4.81365">
        <ele>174.19999694824</ele>
        <time>2021-04-08T14:48:01.000Z</time>
      </trkpt>
      <trkpt lat="46.15914" lon="4.81473">
        <ele>172.60000610352</ele>
        <time>2021-04-08T14:47:49.000Z</time>
      </trkpt>
      <trkpt lat="46.15917" lon="4.81609">
        <ele>175.60000610352</ele>
        <time>2021-04-08T14:47:33.000Z</time>
      </trkpt>
      <trkpt lat="46.15924" lon="4.81639">
        <ele>176</ele>
        <time>2021-04-08T14:47:26.000Z</time>
      </trkpt>
      <trkpt lat="46.15926" lon="4.81654">
        <ele>176.19999694824</ele>
        <time>2021-04-08T14:47:18.000Z</time>
      </trkpt>
      <trkpt lat="46.15928" lon="4.81667">
        <ele>176.60000610352</ele>
        <time>2021-04-08T14:47:16.000Z</time>
      </trkpt>
      <trkpt lat="46.15942" lon="4.81762">
        <ele>180</ele>
        <time>2021-04-08T14:47:08.000Z</time>
      </trkpt>
      <trkpt lat="46.15954" lon="4.81841">
        <ele>182.60000610352</ele>
        <time>2021-04-08T14:47:02.000Z</time>
      </trkpt>
      <trkpt lat="46.15957" lon="4.81854">
        <ele>183.19999694824</ele>
        <time>2021-04-08T14:47:01.000Z</time>
      </trkpt>
      <trkpt lat="46.15982" lon="4.81938">
        <ele>187.80000305176</ele>
        <time>2021-04-08T14:46:54.000Z</time>
      </trkpt>
      <trkpt lat="46.1599" lon="4.81989">
        <ele>190.19999694824</ele>
        <time>2021-04-08T14:46:50.000Z</time>
      </trkpt>
      <trkpt lat="46.1599" lon="4.82002">
        <ele>190.80000305176</ele>
        <time>2021-04-08T14:46:49.000Z</time>
      </trkpt>
      <trkpt lat="46.15991" lon="4.82062">
        <ele>193</ele>
        <time>2021-04-08T14:46:44.000Z</time>
      </trkpt>
      <trkpt lat="46.16006" lon="4.82183">
        <ele>197.60000610352</ele>
        <time>2021-04-08T14:46:33.000Z</time>
      </trkpt>
      <trkpt lat="46.16027" lon="4.82285">
        <ele>199.39999389648</ele>
        <time>2021-04-08T14:46:18.000Z</time>
      </trkpt>
      <trkpt lat="46.16043" lon="4.82319">
        <ele>201</ele>
        <time>2021-04-08T14:46:09.000Z</time>
      </trkpt>
      <trkpt lat="46.16046" lon="4.82326">
        <ele>201.39999389648</ele>
        <time>2021-04-08T14:46:08.000Z</time>
      </trkpt>
      <trkpt lat="46.16061" lon="4.82368">
        <ele>203.39999389648</ele>
        <time>2021-04-08T14:46:03.000Z</time>
      </trkpt>
      <trkpt lat="46.16063" lon="4.82376">
        <ele>203.60000610352</ele>
        <time>2021-04-08T14:46:02.000Z</time>
      </trkpt>
      <trkpt lat="46.16069" lon="4.82476">
        <ele>206.80000305176</ele>
        <time>2021-04-08T14:45:50.000Z</time>
      </trkpt>
      <trkpt lat="46.16077" lon="4.82509">
        <ele>208</ele>
        <time>2021-04-08T14:45:44.000Z</time>
      </trkpt>
      <trkpt lat="46.16085" lon="4.82524">
        <ele>208.60000610352</ele>
        <time>2021-04-08T14:45:41.000Z</time>
      </trkpt>
      <trkpt lat="46.16104" lon="4.82588">
        <ele>208</ele>
        <time>2021-04-08T14:45:28.000Z</time>
      </trkpt>
      <trkpt lat="46.16102" lon="4.82644">
        <ele>208</ele>
        <time>2021-04-08T14:45:19.000Z</time>
      </trkpt>
      <trkpt lat="46.16092" lon="4.82765">
        <ele>203.19999694824</ele>
        <time>2021-04-08T14:45:03.000Z</time>
      </trkpt>
      <trkpt lat="46.16088" lon="4.82814">
        <ele>200</ele>
        <time>2021-04-08T14:44:55.000Z</time>
      </trkpt>
      <trkpt lat="46.1608" lon="4.82821">
        <ele>199.80000305176</ele>
        <time>2021-04-08T14:44:52.000Z</time>
      </trkpt>
      <trkpt lat="46.16049" lon="4.82843">
        <ele>199.80000305176</ele>
        <time>2021-04-08T14:44:42.000Z</time>
      </trkpt>
      <trkpt lat="46.16022" lon="4.8284">
        <ele>201</ele>
        <time>2021-04-08T14:44:33.000Z</time>
      </trkpt>
      <trkpt lat="46.15998" lon="4.82847">
        <ele>202.39999389648</ele>
        <time>2021-04-08T14:44:28.000Z</time>
      </trkpt>
      <trkpt lat="46.15962" lon="4.82845">
        <ele>203</ele>
        <time>2021-04-08T14:44:18.000Z</time>
      </trkpt>
      <trkpt lat="46.15937" lon="4.82841">
        <ele>203.19999694824</ele>
        <time>2021-04-08T14:44:12.000Z</time>
      </trkpt>
      <trkpt lat="46.15905" lon="4.82856">
        <ele>202.60000610352</ele>
        <time>2021-04-08T14:44:05.000Z</time>
      </trkpt>
      <trkpt lat="46.15889" lon="4.82869">
        <ele>202.80000305176</ele>
        <time>2021-04-08T14:44:01.000Z</time>
      </trkpt>
      <trkpt lat="46.15868" lon="4.82872">
        <ele>203.39999389648</ele>
        <time>2021-04-08T14:43:55.000Z</time>
      </trkpt>
      <trkpt lat="46.1585" lon="4.82881">
        <ele>203.60000610352</ele>
        <time>2021-04-08T14:43:50.000Z</time>
      </trkpt>
      <trkpt lat="46.15827" lon="4.82888">
        <ele>204.19999694824</ele>
        <time>2021-04-08T14:43:44.000Z</time>
      </trkpt>
      <trkpt lat="46.15816" lon="4.82891">
        <ele>204.60000610352</ele>
        <time>2021-04-08T14:43:26.000Z</time>
      </trkpt>
      <trkpt lat="46.15817" lon="4.8289">
        <ele>204.60000610352</ele>
        <time>2021-04-08T14:43:22.000Z</time>
      </trkpt>
      <trkpt lat="46.15772" lon="4.82877">
        <ele>205.4</ele>
      </trkpt>
      <trkpt lat="46.15699" lon="4.82843">
        <ele>208.5</ele>
      </trkpt>
      <trkpt lat="46.15622" lon="4.82787">
        <ele>210.6</ele>
      </trkpt>
      <trkpt lat="46.15524" lon="4.82693">
        <ele>214.5</ele>
      </trkpt>
      <trkpt lat="46.15515" lon="4.82868">
        <ele>213.2</ele>
      </trkpt>
      <trkpt lat="46.15515" lon="4.8298">
        <ele>212</ele>
      </trkpt>
      <trkpt lat="46.1553" lon="4.8324">
        <ele>212.7</ele>
      </trkpt>
      <trkpt lat="46.15446" lon="4.83205">
        <ele>211.8</ele>
      </trkpt>
      <trkpt lat="46.15342" lon="4.8317">
        <ele>215.19999694824</ele>
        <time>2021-04-08T14:39:56.000Z</time>
      </trkpt>
      <trkpt lat="46.15238" lon="4.83143">
        <ele>219</ele>
        <time>2021-04-08T14:39:38.000Z</time>
      </trkpt>
      <trkpt lat="46.1516" lon="4.83127">
        <ele>221.60000610352</ele>
        <time>2021-04-08T14:39:24.000Z</time>
      </trkpt>
      <trkpt lat="46.15087" lon="4.83118">
        <ele>222</ele>
        <time>2021-04-08T14:39:10.000Z</time>
      </trkpt>
      <trkpt lat="46.15065" lon="4.83121">
        <ele>221</ele>
        <time>2021-04-08T14:39:06.000Z</time>
      </trkpt>
      <trkpt lat="46.14992" lon="4.83121">
        <ele>221</ele>
        <time>2021-04-08T14:38:52.000Z</time>
      </trkpt>
      <trkpt lat="46.14961" lon="4.83153">
        <ele>222</ele>
        <time>2021-04-08T14:38:43.000Z</time>
      </trkpt>
      <trkpt lat="46.1494" lon="4.83176">
        <ele>222</ele>
        <time>2021-04-08T14:38:38.000Z</time>
      </trkpt>
      <trkpt lat="46.14908" lon="4.83204">
        <ele>222</ele>
        <time>2021-04-08T14:38:31.000Z</time>
      </trkpt>
      <trkpt lat="46.14863" lon="4.83216">
        <ele>222.60000610352</ele>
        <time>2021-04-08T14:38:22.000Z</time>
      </trkpt>
      <trkpt lat="46.14844" lon="4.83241">
        <ele>223</ele>
        <time>2021-04-08T14:38:17.000Z</time>
      </trkpt>
      <trkpt lat="46.14817" lon="4.83269">
        <ele>223.19999694824</ele>
        <time>2021-04-08T14:38:10.000Z</time>
      </trkpt>
      <trkpt lat="46.14798" lon="4.83285">
        <ele>224.80000305176</ele>
        <time>2021-04-08T14:38:06.000Z</time>
      </trkpt>
      <trkpt lat="46.1477" lon="4.83318">
        <ele>226</ele>
        <time>2021-04-08T14:38:00.000Z</time>
      </trkpt>
      <trkpt lat="46.14756" lon="4.83353">
        <ele>226</ele>
        <time>2021-04-08T14:37:55.000Z</time>
      </trkpt>
      <trkpt lat="46.14734" lon="4.834">
        <ele>227</ele>
        <time>2021-04-08T14:37:46.000Z</time>
      </trkpt>
      <trkpt lat="46.14718" lon="4.83391">
        <ele>227</ele>
        <time>2021-04-08T14:37:42.000Z</time>
      </trkpt>
      <trkpt lat="46.14705" lon="4.83386">
        <ele>226.80000305176</ele>
        <time>2021-04-08T14:37:39.000Z</time>
      </trkpt>
      <trkpt lat="46.14682" lon="4.83377">
        <ele>225.60000610352</ele>
        <time>2021-04-08T14:37:34.000Z</time>
      </trkpt>
      <trkpt lat="46.1467" lon="4.83381">
        <ele>225.19999694824</ele>
        <time>2021-04-08T14:37:30.000Z</time>
      </trkpt>
      <trkpt lat="46.14669" lon="4.83385">
        <ele>225</ele>
        <time>2021-04-08T14:37:29.000Z</time>
      </trkpt>
      <trkpt lat="46.14643" lon="4.83485">
        <ele>225</ele>
        <time>2021-04-08T14:37:14.000Z</time>
      </trkpt>
      <trkpt lat="46.14613" lon="4.83597">
        <ele>227.60000610352</ele>
        <time>2021-04-08T14:36:59.000Z</time>
      </trkpt>
      <trkpt lat="46.14604" lon="4.83635">
        <ele>227.19999694824</ele>
        <time>2021-04-08T14:36:54.000Z</time>
      </trkpt>
      <trkpt lat="46.14597" lon="4.83657">
        <ele>226.80000305176</ele>
        <time>2021-04-08T14:36:51.000Z</time>
      </trkpt>
      <trkpt lat="46.14584" lon="4.8368">
        <ele>226</ele>
        <time>2021-04-08T14:36:47.000Z</time>
      </trkpt>
      <trkpt lat="46.14573" lon="4.83697">
        <ele>225.39999389648</ele>
        <time>2021-04-08T14:36:44.000Z</time>
      </trkpt>
      <trkpt lat="46.14557" lon="4.8372">
        <ele>223.80000305176</ele>
        <time>2021-04-08T14:36:40.000Z</time>
      </trkpt>
      <trkpt lat="46.14538" lon="4.83748">
        <ele>222.19999694824</ele>
        <time>2021-04-08T14:36:35.000Z</time>
      </trkpt>
      <trkpt lat="46.14488" lon="4.83809">
        <ele>218</ele>
        <time>2021-04-08T14:36:24.000Z</time>
      </trkpt>
      <trkpt lat="46.14459" lon="4.83824">
        <ele>217.39999389648</ele>
        <time>2021-04-08T14:36:18.000Z</time>
      </trkpt>
      <trkpt lat="46.14429" lon="4.83832">
        <ele>217.80000305176</ele>
        <time>2021-04-08T14:36:13.000Z</time>
      </trkpt>
      <trkpt lat="46.14417" lon="4.8383">
        <ele>218</ele>
        <time>2021-04-08T14:36:11.000Z</time>
      </trkpt>
      <trkpt lat="46.14403" lon="4.83829">
        <ele>218</ele>
        <time>2021-04-08T14:36:09.000Z</time>
      </trkpt>
      <trkpt lat="46.14376" lon="4.83835">
        <ele>219</ele>
        <time>2021-04-08T14:36:05.000Z</time>
      </trkpt>
      <trkpt lat="46.14335" lon="4.83861">
        <ele>221.80000305176</ele>
        <time>2021-04-08T14:35:56.000Z</time>
      </trkpt>
      <trkpt lat="46.1433" lon="4.83875">
        <ele>222.19999694824</ele>
        <time>2021-04-08T14:35:54.000Z</time>
      </trkpt>
      <trkpt lat="46.14311" lon="4.83904">
        <ele>223.19999694824</ele>
        <time>2021-04-08T14:35:49.000Z</time>
      </trkpt>
      <trkpt lat="46.14306" lon="4.83908">
        <ele>223.19999694824</ele>
        <time>2021-04-08T14:35:48.000Z</time>
      </trkpt>
      <trkpt lat="46.14236" lon="4.83982">
        <ele>223.19999694824</ele>
        <time>2021-04-08T14:35:33.000Z</time>
      </trkpt>
      <trkpt lat="46.14153" lon="4.84063">
        <ele>223.19999694824</ele>
        <time>2021-04-08T14:35:15.000Z</time>
      </trkpt>
      <trkpt lat="46.14118" lon="4.84104">
        <ele>223.39999389648</ele>
        <time>2021-04-08T14:35:07.000Z</time>
      </trkpt>
      <trkpt lat="46.14109" lon="4.8411">
        <ele>223.80000305176</ele>
        <time>2021-04-08T14:35:05.000Z</time>
      </trkpt>
      <trkpt lat="46.14092" lon="4.84114">
        <ele>224.39999389648</ele>
        <time>2021-04-08T14:35:02.000Z</time>
      </trkpt>
      <trkpt lat="46.14081" lon="4.84111">
        <ele>225.60000610352</ele>
        <time>2021-04-08T14:35:00.000Z</time>
      </trkpt>
      <trkpt lat="46.14069" lon="4.84108">
        <ele>226</ele>
        <time>2021-04-08T14:34:58.000Z</time>
      </trkpt>
      <trkpt lat="46.14033" lon="4.84131">
        <ele>226</ele>
        <time>2021-04-08T14:34:50.000Z</time>
      </trkpt>
      <trkpt lat="46.1402" lon="4.84167">
        <ele>224</ele>
        <time>2021-04-08T14:34:45.000Z</time>
      </trkpt>
      <trkpt lat="46.13987" lon="4.84207">
        <ele>223</ele>
        <time>2021-04-08T14:34:38.000Z</time>
      </trkpt>
      <trkpt lat="46.13968" lon="4.84209">
        <ele>223</ele>
        <time>2021-04-08T14:34:35.000Z</time>
      </trkpt>
      <trkpt lat="46.13839" lon="4.8421">
        <ele>225.39999389648</ele>
        <time>2021-04-08T14:34:13.000Z</time>
      </trkpt>
      <trkpt lat="46.13718" lon="4.84209">
        <ele>226.80000305176</ele>
        <time>2021-04-08T14:33:53.000Z</time>
      </trkpt>
      <trkpt lat="46.13712" lon="4.84209">
        <ele>227</ele>
        <time>2021-04-08T14:33:52.000Z</time>
      </trkpt>
      <trkpt lat="46.13677" lon="4.84171">
        <ele>228.19999694824</ele>
        <time>2021-04-08T14:33:44.000Z</time>
      </trkpt>
      <trkpt lat="46.13666" lon="4.84059">
        <ele>228</ele>
        <time>2021-04-08T14:33:30.000Z</time>
      </trkpt>
      <trkpt lat="46.13665" lon="4.84052">
        <ele>228</ele>
        <time>2021-04-08T14:33:29.000Z</time>
      </trkpt>
      <trkpt lat="46.13655" lon="4.84039">
        <ele>228</ele>
        <time>2021-04-08T14:33:22.000Z</time>
      </trkpt>
      <trkpt lat="46.13656" lon="4.84154">
        <ele>228.19999694824</ele>
        <time>2021-04-08T14:33:09.000Z</time>
      </trkpt>
      <trkpt lat="46.13658" lon="4.84275">
        <ele>229.60000610352</ele>
        <time>2021-04-08T14:32:52.000Z</time>
      </trkpt>
      <trkpt lat="46.13659" lon="4.84367">
        <ele>229</ele>
        <time>2021-04-08T14:32:39.000Z</time>
      </trkpt>
      <trkpt lat="46.13659" lon="4.844">
        <ele>230.80000305176</ele>
        <time>2021-04-08T14:32:35.000Z</time>
      </trkpt>
      <trkpt lat="46.13663" lon="4.84502">
        <ele>230.80000305176</ele>
        <time>2021-04-08T14:32:23.000Z</time>
      </trkpt>
      <trkpt lat="46.13671" lon="4.84655">
        <ele>229.39999389648</ele>
        <time>2021-04-08T14:32:05.000Z</time>
      </trkpt>
      <trkpt lat="46.13675" lon="4.84765">
        <ele>230.60000610352</ele>
        <time>2021-04-08T14:31:54.000Z</time>
      </trkpt>
      <trkpt lat="46.1368" lon="4.84894">
        <ele>234.60000610352</ele>
        <time>2021-04-08T14:31:41.000Z</time>
      </trkpt>
      <trkpt lat="46.13692" lon="4.85049">
        <ele>236.39999389648</ele>
        <time>2021-04-08T14:31:22.000Z</time>
      </trkpt>
      <trkpt lat="46.13698" lon="4.85095">
        <ele>237.39999389648</ele>
        <time>2021-04-08T14:31:15.000Z</time>
      </trkpt>
      <trkpt lat="46.13702" lon="4.85223">
        <ele>235.60000610352</ele>
        <time>2021-04-08T14:30:56.000Z</time>
      </trkpt>
      <trkpt lat="46.13695" lon="4.85247">
        <ele>235</ele>
        <time>2021-04-08T14:30:52.000Z</time>
      </trkpt>
      <trkpt lat="46.13682" lon="4.85273">
        <ele>234.19999694824</ele>
        <time>2021-04-08T14:30:47.000Z</time>
      </trkpt>
      <trkpt lat="46.13634" lon="4.85361">
        <ele>235.19999694824</ele>
        <time>2021-04-08T14:30:32.000Z</time>
      </trkpt>
      <trkpt lat="46.13604" lon="4.85449">
        <ele>233</ele>
        <time>2021-04-08T14:30:18.000Z</time>
      </trkpt>
      <trkpt lat="46.13556" lon="4.85566">
        <ele>233</ele>
        <time>2021-04-08T14:30:01.000Z</time>
      </trkpt>
      <trkpt lat="46.13513" lon="4.85666">
        <ele>235</ele>
        <time>2021-04-08T14:29:48.000Z</time>
      </trkpt>
      <trkpt lat="46.13457" lon="4.85764">
        <ele>235.39999389648</ele>
        <time>2021-04-08T14:29:34.000Z</time>
      </trkpt>
      <trkpt lat="46.13451" lon="4.85773">
        <ele>235.80000305176</ele>
        <time>2021-04-08T14:29:32.000Z</time>
      </trkpt>
      <trkpt lat="46.1341" lon="4.85766">
        <ele>238.80000305176</ele>
        <time>2021-04-08T14:29:21.000Z</time>
      </trkpt>
      <trkpt lat="46.13391" lon="4.85764">
        <ele>239.80000305176</ele>
        <time>2021-04-08T14:29:15.000Z</time>
      </trkpt>
      <trkpt lat="46.13376" lon="4.85771">
        <ele>240.39999389648</ele>
        <time>2021-04-08T14:29:12.000Z</time>
      </trkpt>
      <trkpt lat="46.1332" lon="4.85777">
        <ele>240.60000610352</ele>
        <time>2021-04-08T14:29:02.000Z</time>
      </trkpt>
      <trkpt lat="46.13309" lon="4.8578">
        <ele>240.39999389648</ele>
        <time>2021-04-08T14:29:00.000Z</time>
      </trkpt>
      <trkpt lat="46.13297" lon="4.8578">
        <ele>240</ele>
        <time>2021-04-08T14:28:58.000Z</time>
      </trkpt>
      <trkpt lat="46.13276" lon="4.85772">
        <ele>239.39999389648</ele>
        <time>2021-04-08T14:28:54.000Z</time>
      </trkpt>
      <trkpt lat="46.13243" lon="4.85757">
        <ele>239.80000305176</ele>
        <time>2021-04-08T14:28:48.000Z</time>
      </trkpt>
      <trkpt lat="46.13225" lon="4.85741">
        <ele>239.80000305176</ele>
        <time>2021-04-08T14:28:44.000Z</time>
      </trkpt>
      <trkpt lat="46.13206" lon="4.85702">
        <ele>238.80000305176</ele>
        <time>2021-04-08T14:28:38.000Z</time>
      </trkpt>
      <trkpt lat="46.13193" lon="4.85666">
        <ele>237.60000610352</ele>
        <time>2021-04-08T14:28:33.000Z</time>
      </trkpt>
      <trkpt lat="46.13185" lon="4.85645">
        <ele>238</ele>
        <time>2021-04-08T14:28:30.000Z</time>
      </trkpt>
      <trkpt lat="46.13175" lon="4.85626">
        <ele>238</ele>
        <time>2021-04-08T14:28:27.000Z</time>
      </trkpt>
      <trkpt lat="46.13167" lon="4.85614">
        <ele>238</ele>
        <time>2021-04-08T14:28:25.000Z</time>
      </trkpt>
      <trkpt lat="46.13154" lon="4.85601">
        <ele>238</ele>
        <time>2021-04-08T14:28:22.000Z</time>
      </trkpt>
      <trkpt lat="46.13102" lon="4.85556">
        <ele>238</ele>
        <time>2021-04-08T14:28:12.000Z</time>
      </trkpt>
      <trkpt lat="46.13089" lon="4.8554">
        <ele>238.39999389648</ele>
        <time>2021-04-08T14:28:09.000Z</time>
      </trkpt>
      <trkpt lat="46.13027" lon="4.85464">
        <ele>238.39999389648</ele>
        <time>2021-04-08T14:27:55.000Z</time>
      </trkpt>
      <trkpt lat="46.12953" lon="4.85425">
        <ele>239.19999694824</ele>
        <time>2021-04-08T14:27:42.000Z</time>
      </trkpt>
      <trkpt lat="46.12862" lon="4.85366">
        <ele>242.60000610352</ele>
        <time>2021-04-08T14:27:26.000Z</time>
      </trkpt>
      <trkpt lat="46.12771" lon="4.85283">
        <ele>244</ele>
        <time>2021-04-08T14:27:08.000Z</time>
      </trkpt>
      <trkpt lat="46.12726" lon="4.85229">
        <ele>246</ele>
        <time>2021-04-08T14:26:58.000Z</time>
      </trkpt>
      <trkpt lat="46.12714" lon="4.85187">
        <ele>247</ele>
        <time>2021-04-08T14:26:52.000Z</time>
      </trkpt>
      <trkpt lat="46.12717" lon="4.85164">
        <ele>247</ele>
        <time>2021-04-08T14:26:49.000Z</time>
      </trkpt>
      <trkpt lat="46.12702" lon="4.8513">
        <ele>247.60000610352</ele>
        <time>2021-04-08T14:26:42.000Z</time>
      </trkpt>
      <trkpt lat="46.12677" lon="4.85128">
        <ele>247.80000305176</ele>
        <time>2021-04-08T14:26:37.000Z</time>
      </trkpt>
      <trkpt lat="46.12578" lon="4.85099">
        <ele>248.80000305176</ele>
        <time>2021-04-08T14:26:20.000Z</time>
      </trkpt>
      <trkpt lat="46.1255" lon="4.85081">
        <ele>248.60000610352</ele>
        <time>2021-04-08T14:26:15.000Z</time>
      </trkpt>
      <trkpt lat="46.12525" lon="4.85056">
        <ele>248.60000610352</ele>
        <time>2021-04-08T14:26:10.000Z</time>
      </trkpt>
      <trkpt lat="46.12514" lon="4.85051">
        <ele>248.60000610352</ele>
        <time>2021-04-08T14:26:08.000Z</time>
      </trkpt>
      <trkpt lat="46.12448" lon="4.85011">
        <ele>250</ele>
        <time>2021-04-08T14:25:55.000Z</time>
      </trkpt>
      <trkpt lat="46.12415" lon="4.84994">
        <ele>250.19999694824</ele>
        <time>2021-04-08T14:25:49.000Z</time>
      </trkpt>
      <trkpt lat="46.12383" lon="4.84975">
        <ele>249.39999389648</ele>
        <time>2021-04-08T14:25:43.000Z</time>
      </trkpt>
      <trkpt lat="46.12292" lon="4.8493">
        <ele>249</ele>
        <time>2021-04-08T14:25:26.000Z</time>
      </trkpt>
      <trkpt lat="46.12233" lon="4.849">
        <ele>249</ele>
        <time>2021-04-08T14:25:15.000Z</time>
      </trkpt>
      <trkpt lat="46.12162" lon="4.84869">
        <ele>249.80000305176</ele>
        <time>2021-04-08T14:25:01.000Z</time>
      </trkpt>
      <trkpt lat="46.12145" lon="4.84858">
        <ele>250.39999389648</ele>
        <time>2021-04-08T14:24:57.000Z</time>
      </trkpt>
      <trkpt lat="46.11023" lon="4.84985">
        <ele>257</ele>
        <time>2021-04-08T14:19:24.000Z</time>
      </trkpt>
      <trkpt lat="46.11012" lon="4.8499">
        <ele>257</ele>
        <time>2021-04-08T14:19:22.000Z</time>
      </trkpt>
      <trkpt lat="46.10922" lon="4.85037">
        <ele>257.60000610352</ele>
        <time>2021-04-08T14:19:04.000Z</time>
      </trkpt>
      <trkpt lat="46.10857" lon="4.85061">
        <ele>258</ele>
        <time>2021-04-08T14:18:51.000Z</time>
      </trkpt>
      <trkpt lat="46.10824" lon="4.85049">
        <ele>256.39999389648</ele>
        <time>2021-04-08T14:18:45.000Z</time>
      </trkpt>
      <trkpt lat="46.10781" lon="4.85019">
        <ele>257.39999389648</ele>
        <time>2021-04-08T14:18:37.000Z</time>
      </trkpt>
      <trkpt lat="46.1073" lon="4.85009">
        <ele>259.39999389648</ele>
        <time>2021-04-08T14:18:27.000Z</time>
      </trkpt>
      <trkpt lat="46.10688" lon="4.85012">
        <ele>260.79998779297</ele>
        <time>2021-04-08T14:18:19.000Z</time>
      </trkpt>
      <trkpt lat="46.10613" lon="4.85012">
        <ele>261.60000610352</ele>
        <time>2021-04-08T14:18:04.000Z</time>
      </trkpt>
      <trkpt lat="46.10542" lon="4.85007">
        <ele>261</ele>
        <time>2021-04-08T14:17:49.000Z</time>
      </trkpt>
      <trkpt lat="46.10531" lon="4.85">
        <ele>261</ele>
        <time>2021-04-08T14:17:45.000Z</time>
      </trkpt>
      <trkpt lat="46.10532" lon="4.84949">
        <ele>261.20001220703</ele>
        <time>2021-04-08T14:17:35.000Z</time>
      </trkpt>
      <trkpt lat="46.10535" lon="4.8493">
        <ele>261</ele>
        <time>2021-04-08T14:17:32.000Z</time>
      </trkpt>
      <trkpt lat="46.10547" lon="4.84894">
        <ele>260</ele>
        <time>2021-04-08T14:17:26.000Z</time>
      </trkpt>
      <trkpt lat="46.10574" lon="4.84849">
        <ele>260</ele>
        <time>2021-04-08T14:17:17.000Z</time>
      </trkpt>
      <trkpt lat="46.10608" lon="4.8479">
        <ele>258.60000610352</ele>
        <time>2021-04-08T14:17:06.000Z</time>
      </trkpt>
      <trkpt lat="46.10619" lon="4.84767">
        <ele>259</ele>
        <time>2021-04-08T14:17:02.000Z</time>
      </trkpt>
      <trkpt lat="46.10644" lon="4.84695">
        <ele>258.20001220703</ele>
        <time>2021-04-08T14:16:50.000Z</time>
      </trkpt>
      <trkpt lat="46.10648" lon="4.84684">
        <ele>258</ele>
        <time>2021-04-08T14:16:48.000Z</time>
      </trkpt>
      <trkpt lat="46.10685" lon="4.84581">
        <ele>256.60000610352</ele>
        <time>2021-04-08T14:16:31.000Z</time>
      </trkpt>
      <trkpt lat="46.10739" lon="4.84488">
        <ele>254</ele>
        <time>2021-04-08T14:16:15.000Z</time>
      </trkpt>
      <trkpt lat="46.10785" lon="4.84408">
        <ele>253.60000610352</ele>
        <time>2021-04-08T14:16:01.000Z</time>
      </trkpt>
      <trkpt lat="46.108" lon="4.8434">
        <ele>252.19999694824</ele>
        <time>2021-04-08T14:15:50.000Z</time>
      </trkpt>
      <trkpt lat="46.10801" lon="4.84334">
        <ele>252.19999694824</ele>
        <time>2021-04-08T14:15:49.000Z</time>
      </trkpt>
      <trkpt lat="46.10802" lon="4.84328">
        <ele>252.19999694824</ele>
        <time>2021-04-08T14:15:48.000Z</time>
      </trkpt>
      <trkpt lat="46.10807" lon="4.8431">
        <ele>252.19999694824</ele>
        <time>2021-04-08T14:15:45.000Z</time>
      </trkpt>
      <trkpt lat="46.10848" lon="4.84223">
        <ele>253.80000305176</ele>
        <time>2021-04-08T14:15:28.000Z</time>
      </trkpt>
      <trkpt lat="46.10844" lon="4.84182">
        <ele>253</ele>
        <time>2021-04-08T14:15:17.000Z</time>
      </trkpt>
      <trkpt lat="46.10827" lon="4.84154">
        <ele>251.39999389648</ele>
        <time>2021-04-08T14:15:10.000Z</time>
      </trkpt>
      <trkpt lat="46.10824" lon="4.84142">
        <ele>250.80000305176</ele>
        <time>2021-04-08T14:15:08.000Z</time>
      </trkpt>
      <trkpt lat="46.10816" lon="4.84088">
        <ele>247.80000305176</ele>
        <time>2021-04-08T14:15:00.000Z</time>
      </trkpt>
      <trkpt lat="46.10806" lon="4.84022">
        <ele>246</ele>
        <time>2021-04-08T14:14:51.000Z</time>
      </trkpt>
      <trkpt lat="46.10785" lon="4.83897">
        <ele>245.19999694824</ele>
        <time>2021-04-08T14:14:34.000Z</time>
      </trkpt>
      <trkpt lat="46.10778" lon="4.83851">
        <ele>244.60000610352</ele>
        <time>2021-04-08T14:14:28.000Z</time>
      </trkpt>
      <trkpt lat="46.10777" lon="4.83844">
        <ele>244.39999389648</ele>
        <time>2021-04-08T14:14:27.000Z</time>
      </trkpt>
      <trkpt lat="46.10767" lon="4.83753">
        <ele>246.19999694824</ele>
        <time>2021-04-08T14:14:15.000Z</time>
      </trkpt>
      <trkpt lat="46.10765" lon="4.83733">
        <ele>247</ele>
        <time>2021-04-08T14:14:12.000Z</time>
      </trkpt>
      <trkpt lat="46.10764" lon="4.83718">
        <ele>247.19999694824</ele>
        <time>2021-04-08T14:14:10.000Z</time>
      </trkpt>
      <trkpt lat="46.10764" lon="4.83684">
        <ele>247</ele>
        <time>2021-04-08T14:14:05.000Z</time>
      </trkpt>
      <trkpt lat="46.10768" lon="4.83649">
        <ele>247</ele>
        <time>2021-04-08T14:14:00.000Z</time>
      </trkpt>
      <trkpt lat="46.1077" lon="4.83634">
        <ele>247</ele>
        <time>2021-04-08T14:13:58.000Z</time>
      </trkpt>
      <trkpt lat="46.10771" lon="4.83621">
        <ele>247</ele>
        <time>2021-04-08T14:13:56.000Z</time>
      </trkpt>
      <trkpt lat="46.10773" lon="4.83586">
        <ele>246.80000305176</ele>
        <time>2021-04-08T14:13:51.000Z</time>
      </trkpt>
      <trkpt lat="46.10774" lon="4.83565">
        <ele>246.19999694824</ele>
        <time>2021-04-08T14:13:48.000Z</time>
      </trkpt>
      <trkpt lat="46.10783" lon="4.83454">
        <ele>246</ele>
        <time>2021-04-08T14:13:31.000Z</time>
      </trkpt>
      <trkpt lat="46.10779" lon="4.83435">
        <ele>246.60000610352</ele>
        <time>2021-04-08T14:13:27.000Z</time>
      </trkpt>
      <trkpt lat="46.10756" lon="4.83427">
        <ele>247</ele>
        <time>2021-04-08T14:13:21.000Z</time>
      </trkpt>
      <trkpt lat="46.10742" lon="4.83406">
        <ele>247</ele>
        <time>2021-04-08T14:13:16.000Z</time>
      </trkpt>
      <trkpt lat="46.10743" lon="4.83374">
        <ele>247</ele>
        <time>2021-04-08T14:13:11.000Z</time>
      </trkpt>
      <trkpt lat="46.10743" lon="4.8333">
        <ele>246</ele>
        <time>2021-04-08T14:13:05.000Z</time>
      </trkpt>
      <trkpt lat="46.10743" lon="4.83315">
        <ele>246</ele>
        <time>2021-04-08T14:13:03.000Z</time>
      </trkpt>
      <trkpt lat="46.10746" lon="4.83285">
        <ele>246</ele>
        <time>2021-04-08T14:12:59.000Z</time>
      </trkpt>
      <trkpt lat="46.10747" lon="4.83268">
        <ele>246</ele>
        <time>2021-04-08T14:12:57.000Z</time>
      </trkpt>
      <trkpt lat="46.10749" lon="4.83213">
        <ele>246</ele>
        <time>2021-04-08T14:12:49.000Z</time>
      </trkpt>
      <trkpt lat="46.10752" lon="4.83124">
        <ele>242.39999389648</ele>
        <time>2021-04-08T14:12:37.000Z</time>
      </trkpt>
      <trkpt lat="46.10755" lon="4.83069">
        <ele>242.39999389648</ele>
        <time>2021-04-08T14:12:30.000Z</time>
      </trkpt>
      <trkpt lat="46.10756" lon="4.82997">
        <ele>243.39999389648</ele>
        <time>2021-04-08T14:12:21.000Z</time>
      </trkpt>
      <trkpt lat="46.10759" lon="4.82959">
        <ele>242</ele>
        <time>2021-04-08T14:12:16.000Z</time>
      </trkpt>
      <trkpt lat="46.10761" lon="4.82929">
        <ele>242.39999389648</ele>
        <time>2021-04-08T14:12:12.000Z</time>
      </trkpt>
      <trkpt lat="46.10776" lon="4.82889">
        <ele>242</ele>
        <time>2021-04-08T14:12:02.000Z</time>
      </trkpt>
      <trkpt lat="46.10783" lon="4.82844">
        <ele>240.80000305176</ele>
        <time>2021-04-08T14:11:54.000Z</time>
      </trkpt>
      <trkpt lat="46.10786" lon="4.82824">
        <ele>240</ele>
        <time>2021-04-08T14:11:51.000Z</time>
      </trkpt>
      <trkpt lat="46.10788" lon="4.8279">
        <ele>239.39999389648</ele>
        <time>2021-04-08T14:11:46.000Z</time>
      </trkpt>
      <trkpt lat="46.10789" lon="4.82762">
        <ele>239.60000610352</ele>
        <time>2021-04-08T14:11:42.000Z</time>
      </trkpt>
      <trkpt lat="46.10791" lon="4.82741">
        <ele>239.39999389648</ele>
        <time>2021-04-08T14:11:39.000Z</time>
      </trkpt>
      <trkpt lat="46.10793" lon="4.82722">
        <ele>238.80000305176</ele>
        <time>2021-04-08T14:11:36.000Z</time>
      </trkpt>
      <trkpt lat="46.10793" lon="4.82696">
        <ele>237.80000305176</ele>
        <time>2021-04-08T14:11:32.000Z</time>
      </trkpt>
      <trkpt lat="46.10792" lon="4.82662">
        <ele>236.19999694824</ele>
        <time>2021-04-08T14:11:26.000Z</time>
      </trkpt>
      <trkpt lat="46.10771" lon="4.82644">
        <ele>238.60000610352</ele>
        <time>2021-04-08T14:11:20.000Z</time>
      </trkpt>
      <trkpt lat="46.10759" lon="4.82623">
        <ele>240</ele>
        <time>2021-04-08T14:11:15.000Z</time>
      </trkpt>
      <trkpt lat="46.10757" lon="4.82547">
        <ele>238.60000610352</ele>
        <time>2021-04-08T14:11:03.000Z</time>
      </trkpt>
      <trkpt lat="46.10746" lon="4.82539">
        <ele>238.19999694824</ele>
        <time>2021-04-08T14:11:00.000Z</time>
      </trkpt>
      <trkpt lat="46.10676" lon="4.82511">
        <ele>240</ele>
        <time>2021-04-08T14:10:47.000Z</time>
      </trkpt>
      <trkpt lat="46.10648" lon="4.82499">
        <ele>239.80000305176</ele>
        <time>2021-04-08T14:10:42.000Z</time>
      </trkpt>
      <trkpt lat="46.10607" lon="4.82488">
        <ele>239.80000305176</ele>
        <time>2021-04-08T14:10:34.000Z</time>
      </trkpt>
      <trkpt lat="46.10588" lon="4.82488">
        <ele>239.80000305176</ele>
        <time>2021-04-08T14:10:30.000Z</time>
      </trkpt>
      <trkpt lat="46.10544" lon="4.82486">
        <ele>239</ele>
        <time>2021-04-08T14:10:22.000Z</time>
      </trkpt>
      <trkpt lat="46.10488" lon="4.82492">
        <ele>238</ele>
        <time>2021-04-08T14:10:12.000Z</time>
      </trkpt>
      <trkpt lat="46.10404" lon="4.8251">
        <ele>240</ele>
        <time>2021-04-08T14:09:57.000Z</time>
      </trkpt>
      <trkpt lat="46.1034" lon="4.82519">
        <ele>239.60000610352</ele>
        <time>2021-04-08T14:09:45.000Z</time>
      </trkpt>
      <trkpt lat="46.10328" lon="4.82522">
        <ele>239.80000305176</ele>
        <time>2021-04-08T14:09:43.000Z</time>
      </trkpt>
      <trkpt lat="46.103" lon="4.82524">
        <ele>240</ele>
        <time>2021-04-08T14:09:38.000Z</time>
      </trkpt>
      <trkpt lat="46.10253" lon="4.82526">
        <ele>240</ele>
        <time>2021-04-08T14:09:29.000Z</time>
      </trkpt>
      <trkpt lat="46.10227" lon="4.82522">
        <ele>239.60000610352</ele>
        <time>2021-04-08T14:09:24.000Z</time>
      </trkpt>
      <trkpt lat="46.10175" lon="4.82518">
        <ele>238.60000610352</ele>
        <time>2021-04-08T14:09:14.000Z</time>
      </trkpt>
      <trkpt lat="46.10155" lon="4.82514">
        <ele>237.80000305176</ele>
        <time>2021-04-08T14:09:10.000Z</time>
      </trkpt>
      <trkpt lat="46.1012" lon="4.82483">
        <ele>238.80000305176</ele>
        <time>2021-04-08T14:09:01.000Z</time>
      </trkpt>
      <trkpt lat="46.10113" lon="4.82453">
        <ele>240.60000610352</ele>
        <time>2021-04-08T14:08:57.000Z</time>
      </trkpt>
      <trkpt lat="46.10095" lon="4.82358">
        <ele>242.19999694824</ele>
        <time>2021-04-08T14:08:45.000Z</time>
      </trkpt>
      <trkpt lat="46.10094" lon="4.82337">
        <ele>242.19999694824</ele>
        <time>2021-04-08T14:08:42.000Z</time>
      </trkpt>
      <trkpt lat="46.10086" lon="4.82318">
        <ele>242.60000610352</ele>
        <time>2021-04-08T14:08:38.000Z</time>
      </trkpt>
      <trkpt lat="46.10051" lon="4.82294">
        <ele>243.80000305176</ele>
        <time>2021-04-08T14:08:29.000Z</time>
      </trkpt>
      <trkpt lat="46.1002" lon="4.8228">
        <ele>243.80000305176</ele>
        <time>2021-04-08T14:08:22.000Z</time>
      </trkpt>
      <trkpt lat="46.09999" lon="4.82266">
        <ele>243.80000305176</ele>
        <time>2021-04-08T14:08:16.000Z</time>
      </trkpt>
      <trkpt lat="46.09997" lon="4.82249">
        <ele>244</ele>
        <time>2021-04-08T14:08:13.000Z</time>
      </trkpt>
      <trkpt lat="46.09997" lon="4.82236">
        <ele>244.19999694824</ele>
        <time>2021-04-08T14:08:11.000Z</time>
      </trkpt>
      <trkpt lat="46.1" lon="4.82209">
        <ele>242.39999389648</ele>
        <time>2021-04-08T14:08:07.000Z</time>
      </trkpt>
      <trkpt lat="46.1001" lon="4.8217">
        <ele>241.19999694824</ele>
        <time>2021-04-08T14:08:01.000Z</time>
      </trkpt>
      <trkpt lat="46.10028" lon="4.82149">
        <ele>242</ele>
        <time>2021-04-08T14:07:55.000Z</time>
      </trkpt>
      <trkpt lat="46.1004" lon="4.82138">
        <ele>242</ele>
        <time>2021-04-08T14:07:52.000Z</time>
      </trkpt>
      <trkpt lat="46.10056" lon="4.82124">
        <ele>241.80000305176</ele>
        <time>2021-04-08T14:07:48.000Z</time>
      </trkpt>
      <trkpt lat="46.10079" lon="4.82106">
        <ele>240.60000610352</ele>
        <time>2021-04-08T14:07:43.000Z</time>
      </trkpt>
      <trkpt lat="46.10117" lon="4.82075">
        <ele>240.39999389648</ele>
        <time>2021-04-08T14:07:35.000Z</time>
      </trkpt>
      <trkpt lat="46.10121" lon="4.82071">
        <ele>240.19999694824</ele>
        <time>2021-04-08T14:07:34.000Z</time>
      </trkpt>
      <trkpt lat="46.10188" lon="4.82015">
        <ele>238</ele>
        <time>2021-04-08T14:07:20.000Z</time>
      </trkpt>
      <trkpt lat="46.10248" lon="4.81959">
        <ele>238.19999694824</ele>
        <time>2021-04-08T14:07:07.000Z</time>
      </trkpt>
      <trkpt lat="46.10293" lon="4.81918">
        <ele>237</ele>
        <time>2021-04-08T14:06:57.000Z</time>
      </trkpt>
      <trkpt lat="46.10335" lon="4.8185">
        <ele>239</ele>
        <time>2021-04-08T14:06:43.000Z</time>
      </trkpt>
      <trkpt lat="46.10367" lon="4.81761">
        <ele>238.60000610352</ele>
        <time>2021-04-08T14:06:29.000Z</time>
      </trkpt>
      <trkpt lat="46.10397" lon="4.81668">
        <ele>235.60000610352</ele>
        <time>2021-04-08T14:06:16.000Z</time>
      </trkpt>
      <trkpt lat="46.10433" lon="4.8156">
        <ele>234</ele>
        <time>2021-04-08T14:06:01.000Z</time>
      </trkpt>
      <trkpt lat="46.1047" lon="4.81459">
        <ele>233.60000610352</ele>
        <time>2021-04-08T14:05:47.000Z</time>
      </trkpt>
      <trkpt lat="46.10486" lon="4.81411">
        <ele>232.39999389648</ele>
        <time>2021-04-08T14:05:40.000Z</time>
      </trkpt>
      <trkpt lat="46.10517" lon="4.81318">
        <ele>231</ele>
        <time>2021-04-08T14:05:27.000Z</time>
      </trkpt>
      <trkpt lat="46.10547" lon="4.81211">
        <ele>233.60000610352</ele>
        <time>2021-04-08T14:05:13.000Z</time>
      </trkpt>
      <trkpt lat="46.1055" lon="4.81196">
        <ele>233.80000305176</ele>
        <time>2021-04-08T14:05:11.000Z</time>
      </trkpt>
      <trkpt lat="46.10556" lon="4.81175">
        <ele>234</ele>
        <time>2021-04-08T14:05:08.000Z</time>
      </trkpt>
      <trkpt lat="46.10566" lon="4.8116">
        <ele>234</ele>
        <time>2021-04-08T14:05:04.000Z</time>
      </trkpt>
      <trkpt lat="46.10608" lon="4.81166">
        <ele>232.80000305176</ele>
        <time>2021-04-08T14:04:55.000Z</time>
      </trkpt>
      <trkpt lat="46.1069" lon="4.81176">
        <ele>231.80000305176</ele>
        <time>2021-04-08T14:04:39.000Z</time>
      </trkpt>
      <trkpt lat="46.10798" lon="4.81137">
        <ele>232.80000305176</ele>
        <time>2021-04-08T14:04:18.000Z</time>
      </trkpt>
      <trkpt lat="46.10828" lon="4.81135">
        <ele>232.60000610352</ele>
        <time>2021-04-08T14:04:12.000Z</time>
      </trkpt>
      <trkpt lat="46.10875" lon="4.81161">
        <ele>232</ele>
        <time>2021-04-08T14:04:02.000Z</time>
      </trkpt>
      <trkpt lat="46.10881" lon="4.81163">
        <ele>232</ele>
        <time>2021-04-08T14:04:01.000Z</time>
      </trkpt>
      <trkpt lat="46.1097" lon="4.81193">
        <ele>232.60000610352</ele>
        <time>2021-04-08T14:03:44.000Z</time>
      </trkpt>
      <trkpt lat="46.11056" lon="4.81214">
        <ele>234.60000610352</ele>
        <time>2021-04-08T14:03:28.000Z</time>
      </trkpt>
      <trkpt lat="46.11136" lon="4.81242">
        <ele>233.80000305176</ele>
        <time>2021-04-08T14:03:13.000Z</time>
      </trkpt>
      <trkpt lat="46.11151" lon="4.81248">
        <ele>233.19999694824</ele>
        <time>2021-04-08T14:03:10.000Z</time>
      </trkpt>
      <trkpt lat="46.11186" lon="4.81254">
        <ele>233</ele>
        <time>2021-04-08T14:03:02.000Z</time>
      </trkpt>
      <trkpt lat="46.1119" lon="4.81232">
        <ele>232.60000610352</ele>
        <time>2021-04-08T14:02:57.000Z</time>
      </trkpt>
      <trkpt lat="46.11187" lon="4.8114">
        <ele>233.19999694824</ele>
        <time>2021-04-08T14:02:43.000Z</time>
      </trkpt>
      <trkpt lat="46.11206" lon="4.8096">
        <ele>231.39999389648</ele>
        <time>2021-04-08T14:02:17.000Z</time>
      </trkpt>
      <trkpt lat="46.11243" lon="4.80802">
        <ele>230</ele>
        <time>2021-04-08T14:01:54.000Z</time>
      </trkpt>
      <trkpt lat="46.1125" lon="4.80744">
        <ele>231.60000610352</ele>
        <time>2021-04-08T14:01:46.000Z</time>
      </trkpt>
      <trkpt lat="46.11231" lon="4.8058">
        <ele>226</ele>
        <time>2021-04-08T14:01:24.000Z</time>
      </trkpt>
      <trkpt lat="46.11227" lon="4.80566">
        <ele>226</ele>
        <time>2021-04-08T14:01:22.000Z</time>
      </trkpt>
      <trkpt lat="46.112" lon="4.80473">
        <ele>227.39999389648</ele>
        <time>2021-04-08T14:01:08.000Z</time>
      </trkpt>
      <trkpt lat="46.11145" lon="4.80436">
        <ele>228</ele>
        <time>2021-04-08T14:00:55.000Z</time>
      </trkpt>
      <trkpt lat="46.11079" lon="4.80392">
        <ele>228</ele>
        <time>2021-04-08T14:00:42.000Z</time>
      </trkpt>
      <trkpt lat="46.11013" lon="4.80367">
        <ele>228</ele>
        <time>2021-04-08T14:00:29.000Z</time>
      </trkpt>
      <trkpt lat="46.10993" lon="4.80361">
        <ele>227.60000610352</ele>
        <time>2021-04-08T14:00:25.000Z</time>
      </trkpt>
      <trkpt lat="46.10974" lon="4.80349">
        <ele>226.80000305176</ele>
        <time>2021-04-08T14:00:21.000Z</time>
      </trkpt>
      <trkpt lat="46.10957" lon="4.80333">
        <ele>225.39999389648</ele>
        <time>2021-04-08T14:00:17.000Z</time>
      </trkpt>
      <trkpt lat="46.10896" lon="4.80278">
        <ele>224</ele>
        <time>2021-04-08T14:00:04.000Z</time>
      </trkpt>
      <trkpt lat="46.10812" lon="4.80213">
        <ele>224.19999694824</ele>
        <time>2021-04-08T13:59:47.000Z</time>
      </trkpt>
      <trkpt lat="46.10764" lon="4.80135">
        <ele>226</ele>
        <time>2021-04-08T13:59:34.000Z</time>
      </trkpt>
      <trkpt lat="46.10725" lon="4.80077">
        <ele>226</ele>
        <time>2021-04-08T13:59:23.000Z</time>
      </trkpt>
      <trkpt lat="46.10699" lon="4.80045">
        <ele>225.19999694824</ele>
        <time>2021-04-08T13:59:16.000Z</time>
      </trkpt>
      <trkpt lat="46.10684" lon="4.80019">
        <ele>223.39999389648</ele>
        <time>2021-04-08T13:59:11.000Z</time>
      </trkpt>
      <trkpt lat="46.10658" lon="4.7997">
        <ele>219.80000305176</ele>
        <time>2021-04-08T13:59:01.000Z</time>
      </trkpt>
      <trkpt lat="46.10643" lon="4.79931">
        <ele>218.19999694824</ele>
        <time>2021-04-08T13:58:54.000Z</time>
      </trkpt>
      <trkpt lat="46.10644" lon="4.79904">
        <ele>218.60000610352</ele>
        <time>2021-04-08T13:58:50.000Z</time>
      </trkpt>
      <trkpt lat="46.10626" lon="4.79884">
        <ele>218.39999389648</ele>
        <time>2021-04-08T13:58:43.000Z</time>
      </trkpt>
      <trkpt lat="46.10584" lon="4.79879">
        <ele>215.60000610352</ele>
        <time>2021-04-08T13:58:33.000Z</time>
      </trkpt>
      <trkpt lat="46.10576" lon="4.79871">
        <ele>215.19999694824</ele>
        <time>2021-04-08T13:58:31.000Z</time>
      </trkpt>
      <trkpt lat="46.10554" lon="4.79849">
        <ele>214.39999389648</ele>
        <time>2021-04-08T13:58:25.000Z</time>
      </trkpt>
      <trkpt lat="46.1052" lon="4.79826">
        <ele>213.39999389648</ele>
        <time>2021-04-08T13:58:17.000Z</time>
      </trkpt>
      <trkpt lat="46.10476" lon="4.79798">
        <ele>212.19999694824</ele>
        <time>2021-04-08T13:58:08.000Z</time>
      </trkpt>
      <trkpt lat="46.10467" lon="4.79792">
        <ele>212</ele>
        <time>2021-04-08T13:58:06.000Z</time>
      </trkpt>
      <trkpt lat="46.10458" lon="4.79787">
        <ele>211.39999389648</ele>
        <time>2021-04-08T13:58:04.000Z</time>
      </trkpt>
      <trkpt lat="46.10446" lon="4.79778">
        <ele>210</ele>
        <time>2021-04-08T13:58:01.000Z</time>
      </trkpt>
      <trkpt lat="46.10442" lon="4.79776">
        <ele>209.60000610352</ele>
        <time>2021-04-08T13:58:00.000Z</time>
      </trkpt>
      <trkpt lat="46.10428" lon="4.79765">
        <ele>207.39999389648</ele>
        <time>2021-04-08T13:57:56.000Z</time>
      </trkpt>
      <trkpt lat="46.10416" lon="4.79759">
        <ele>205.19999694824</ele>
        <time>2021-04-08T13:57:53.000Z</time>
      </trkpt>
      <trkpt lat="46.10408" lon="4.79756">
        <ele>203.39999389648</ele>
        <time>2021-04-08T13:57:51.000Z</time>
      </trkpt>
      <trkpt lat="46.10376" lon="4.79744">
        <ele>199.39999389648</ele>
        <time>2021-04-08T13:57:43.000Z</time>
      </trkpt>
      <trkpt lat="46.10309" lon="4.79739">
        <ele>192.39999389648</ele>
        <time>2021-04-08T13:57:31.000Z</time>
      </trkpt>
      <trkpt lat="46.1028" lon="4.79733">
        <ele>191</ele>
        <time>2021-04-08T13:57:26.000Z</time>
      </trkpt>
      <trkpt lat="46.10247" lon="4.79722">
        <ele>191.80000305176</ele>
        <time>2021-04-08T13:57:19.000Z</time>
      </trkpt>
      <trkpt lat="46.10226" lon="4.79716">
        <ele>193</ele>
        <time>2021-04-08T13:57:15.000Z</time>
      </trkpt>
      <trkpt lat="46.10173" lon="4.79694">
        <ele>192.39999389648</ele>
        <time>2021-04-08T13:57:04.000Z</time>
      </trkpt>
      <trkpt lat="46.10151" lon="4.79688">
        <ele>191.60000610352</ele>
        <time>2021-04-08T13:57:00.000Z</time>
      </trkpt>
      <trkpt lat="46.10131" lon="4.79679">
        <ele>189.39999389648</ele>
        <time>2021-04-08T13:56:56.000Z</time>
      </trkpt>
      <trkpt lat="46.10111" lon="4.79665">
        <ele>188.39999389648</ele>
        <time>2021-04-08T13:56:52.000Z</time>
      </trkpt>
      <trkpt lat="46.10084" lon="4.79639">
        <ele>187.80000305176</ele>
        <time>2021-04-08T13:56:46.000Z</time>
      </trkpt>
      <trkpt lat="46.1007" lon="4.79631">
        <ele>187.39999389648</ele>
        <time>2021-04-08T13:56:43.000Z</time>
      </trkpt>
      <trkpt lat="46.10055" lon="4.79616">
        <ele>186.80000305176</ele>
        <time>2021-04-08T13:56:39.000Z</time>
      </trkpt>
      <trkpt lat="46.10046" lon="4.79601">
        <ele>186.39999389648</ele>
        <time>2021-04-08T13:56:36.000Z</time>
      </trkpt>
      <trkpt lat="46.1003" lon="4.79556">
        <ele>186.19999694824</ele>
        <time>2021-04-08T13:56:29.000Z</time>
      </trkpt>
      <trkpt lat="46.10026" lon="4.79534">
        <ele>185.60000610352</ele>
        <time>2021-04-08T13:56:26.000Z</time>
      </trkpt>
      <trkpt lat="46.10027" lon="4.79508">
        <ele>185</ele>
        <time>2021-04-08T13:56:22.000Z</time>
      </trkpt>
      <trkpt lat="46.10032" lon="4.79488">
        <ele>185</ele>
        <time>2021-04-08T13:56:19.000Z</time>
      </trkpt>
      <trkpt lat="46.10034" lon="4.79474">
        <ele>185</ele>
        <time>2021-04-08T13:56:17.000Z</time>
      </trkpt>
      <trkpt lat="46.10035" lon="4.79452">
        <ele>184.39999389648</ele>
        <time>2021-04-08T13:56:14.000Z</time>
      </trkpt>
      <trkpt lat="46.10033" lon="4.79437">
        <ele>184.80000305176</ele>
        <time>2021-04-08T13:56:12.000Z</time>
      </trkpt>
      <trkpt lat="46.10014" lon="4.7931">
        <ele>186.80000305176</ele>
        <time>2021-04-08T13:55:55.000Z</time>
      </trkpt>
      <trkpt lat="46.1002" lon="4.79136">
        <ele>183.80000305176</ele>
        <time>2021-04-08T13:55:32.000Z</time>
      </trkpt>
      <trkpt lat="46.10041" lon="4.78994">
        <ele>184.19999694824</ele>
        <time>2021-04-08T13:55:12.000Z</time>
      </trkpt>
      <trkpt lat="46.10047" lon="4.78968">
        <ele>184</ele>
        <time>2021-04-08T13:55:08.000Z</time>
      </trkpt>
      <trkpt lat="46.1006" lon="4.78894">
        <ele>183.39999389648</ele>
        <time>2021-04-08T13:54:57.000Z</time>
      </trkpt>
      <trkpt lat="46.1008" lon="4.78723">
        <ele>186</ele>
        <time>2021-04-08T13:54:35.000Z</time>
      </trkpt>
      <trkpt lat="46.1008" lon="4.78699">
        <ele>187</ele>
        <time>2021-04-08T13:54:32.000Z</time>
      </trkpt>
      <trkpt lat="46.10079" lon="4.78588">
        <ele>183</ele>
        <time>2021-04-08T13:54:17.000Z</time>
      </trkpt>
      <trkpt lat="46.10082" lon="4.78541">
        <ele>181.19999694824</ele>
        <time>2021-04-08T13:54:11.000Z</time>
      </trkpt>
      <trkpt lat="46.10083" lon="4.78521">
        <ele>181.60000610352</ele>
        <time>2021-04-08T13:54:08.000Z</time>
      </trkpt>
      <trkpt lat="46.10066" lon="4.78428">
        <ele>185</ele>
        <time>2021-04-08T13:53:56.000Z</time>
      </trkpt>
      <trkpt lat="46.10061" lon="4.78414">
        <ele>185.39999389648</ele>
        <time>2021-04-08T13:53:54.000Z</time>
      </trkpt>
      <trkpt lat="46.10059" lon="4.78377">
        <ele>187.19999694824</ele>
        <time>2021-04-08T13:53:49.000Z</time>
      </trkpt>
      <trkpt lat="46.10084" lon="4.78281">
        <ele>187.80000305176</ele>
        <time>2021-04-08T13:53:36.000Z</time>
      </trkpt>
      <trkpt lat="46.10117" lon="4.78162">
        <ele>188.80000305176</ele>
        <time>2021-04-08T13:53:21.000Z</time>
      </trkpt>
      <trkpt lat="46.10121" lon="4.78122">
        <ele>188.60000610352</ele>
        <time>2021-04-08T13:53:15.000Z</time>
      </trkpt>
      <trkpt lat="46.10127" lon="4.78072">
        <ele>189</ele>
        <time>2021-04-08T13:53:07.000Z</time>
      </trkpt>
      <trkpt lat="46.10152" lon="4.77983">
        <ele>187.19999694824</ele>
        <time>2021-04-08T13:52:54.000Z</time>
      </trkpt>
      <trkpt lat="46.1016" lon="4.77956">
        <ele>187.39999389648</ele>
        <time>2021-04-08T13:52:50.000Z</time>
      </trkpt>
      <trkpt lat="46.10166" lon="4.77922">
        <ele>187.19999694824</ele>
        <time>2021-04-08T13:52:45.000Z</time>
      </trkpt>
      <trkpt lat="46.10168" lon="4.77916">
        <ele>186.80000305176</ele>
        <time>2021-04-08T13:52:44.000Z</time>
      </trkpt>
      <trkpt lat="46.10194" lon="4.77822">
        <ele>184.60000610352</ele>
        <time>2021-04-08T13:52:29.000Z</time>
      </trkpt>
      <trkpt lat="46.10227" lon="4.77701">
        <ele>184.19999694824</ele>
        <time>2021-04-08T13:52:10.000Z</time>
      </trkpt>
      <trkpt lat="46.10241" lon="4.77644">
        <ele>184</ele>
        <time>2021-04-08T13:52:00.000Z</time>
      </trkpt>
      <trkpt lat="46.10246" lon="4.77611">
        <ele>184.80000305176</ele>
        <time>2021-04-08T13:51:53.000Z</time>
      </trkpt>
      <trkpt lat="46.10287" lon="4.77639">
        <ele>182.19999694824</ele>
        <time>2021-04-08T13:51:41.000Z</time>
      </trkpt>
      <trkpt lat="46.10336" lon="4.7768">
        <ele>180.39999389648</ele>
        <time>2021-04-08T13:51:29.000Z</time>
      </trkpt>
      <trkpt lat="46.10408" lon="4.77751">
        <ele>179.80000305176</ele>
        <time>2021-04-08T13:51:11.000Z</time>
      </trkpt>
      <trkpt lat="46.10472" lon="4.77824">
        <ele>177.80000305176</ele>
        <time>2021-04-08T13:50:55.000Z</time>
      </trkpt>
      <trkpt lat="46.10488" lon="4.77823">
        <ele>176.80000305176</ele>
        <time>2021-04-08T13:50:49.000Z</time>
      </trkpt>
      <trkpt lat="46.10466" lon="4.77727">
        <ele>178.19999694824</ele>
        <time>2021-04-08T13:50:36.000Z</time>
      </trkpt>
      <trkpt lat="46.10459" lon="4.77705">
        <ele>178.80000305176</ele>
        <time>2021-04-08T13:50:33.000Z</time>
      </trkpt>
      <trkpt lat="46.10444" lon="4.77676">
        <ele>178.39999389648</ele>
        <time>2021-04-08T13:50:28.000Z</time>
      </trkpt>
      <trkpt lat="46.10446" lon="4.77638">
        <ele>180.39999389648</ele>
        <time>2021-04-08T13:50:20.000Z</time>
      </trkpt>
      <trkpt lat="46.10457" lon="4.7763">
        <ele>180.60000610352</ele>
        <time>2021-04-08T13:50:16.000Z</time>
      </trkpt>
      <trkpt lat="46.10458" lon="4.77619">
        <ele>181</ele>
        <time>2021-04-08T13:50:11.000Z</time>
      </trkpt>
      <trkpt lat="46.10442" lon="4.77525">
        <ele>182</ele>
        <time>2021-04-08T13:49:56.000Z</time>
      </trkpt>
      <trkpt lat="46.10421" lon="4.7742">
        <ele>180.39999389648</ele>
        <time>2021-04-08T13:49:41.000Z</time>
      </trkpt>
      <trkpt lat="46.10419" lon="4.77407">
        <ele>179.80000305176</ele>
        <time>2021-04-08T13:49:39.000Z</time>
      </trkpt>
      <trkpt lat="46.10406" lon="4.77349">
        <ele>179</ele>
        <time>2021-04-08T13:49:30.000Z</time>
      </trkpt>
      <trkpt lat="46.10389" lon="4.77274">
        <ele>179.60000610352</ele>
        <time>2021-04-08T13:49:18.000Z</time>
      </trkpt>
      <trkpt lat="46.10394" lon="4.77257">
        <ele>179.39999389648</ele>
        <time>2021-04-08T13:49:12.000Z</time>
      </trkpt>
      <trkpt lat="46.10397" lon="4.77258">
        <ele>179.39999389648</ele>
        <time>2021-04-08T13:49:11.000Z</time>
      </trkpt>
      <trkpt lat="46.10462" lon="4.773">
        <ele>179</ele>
        <time>2021-04-08T13:48:55.000Z</time>
      </trkpt>
      <trkpt lat="46.10546" lon="4.77346">
        <ele>179</ele>
        <time>2021-04-08T13:48:36.000Z</time>
      </trkpt>
      <trkpt lat="46.10554" lon="4.77352">
        <ele>179</ele>
        <time>2021-04-08T13:48:34.000Z</time>
      </trkpt>
      <trkpt lat="46.1061" lon="4.77383">
        <ele>178</ele>
        <time>2021-04-08T13:48:21.000Z</time>
      </trkpt>
      <trkpt lat="46.10614" lon="4.77385">
        <ele>178</ele>
        <time>2021-04-08T13:48:20.000Z</time>
      </trkpt>
      <trkpt lat="46.10645" lon="4.774">
        <ele>176.80000305176</ele>
        <time>2021-04-08T13:48:12.000Z</time>
      </trkpt>
      <trkpt lat="46.10683" lon="4.77339">
        <ele>175.19999694824</ele>
        <time>2021-04-08T13:47:58.000Z</time>
      </trkpt>
      <trkpt lat="46.10717" lon="4.77276">
        <ele>174.80000305176</ele>
        <time>2021-04-08T13:47:46.000Z</time>
      </trkpt>
      <trkpt lat="46.1074" lon="4.77232">
        <ele>175.80000305176</ele>
        <time>2021-04-08T13:47:38.000Z</time>
      </trkpt>
      <trkpt lat="46.10761" lon="4.77172">
        <ele>176.60000610352</ele>
        <time>2021-04-08T13:47:28.000Z</time>
      </trkpt>
      <trkpt lat="46.1077" lon="4.77146">
        <ele>175.80000305176</ele>
        <time>2021-04-08T13:47:24.000Z</time>
      </trkpt>
      <trkpt lat="46.10781" lon="4.77113">
        <ele>173.19999694824</ele>
        <time>2021-04-08T13:47:19.000Z</time>
      </trkpt>
      <trkpt lat="46.10799" lon="4.77088">
        <ele>172.19999694824</ele>
        <time>2021-04-08T13:47:14.000Z</time>
      </trkpt>
      <trkpt lat="46.10822" lon="4.77033">
        <ele>172</ele>
        <time>2021-04-08T13:47:05.000Z</time>
      </trkpt>
      <trkpt lat="46.10824" lon="4.77014">
        <ele>171.19999694824</ele>
        <time>2021-04-08T13:47:00.000Z</time>
      </trkpt>
      <trkpt lat="46.10902" lon="4.77122">
        <ele>171.6</ele>
      </trkpt>
      <trkpt lat="46.11043" lon="4.7727">
        <ele>171.2</ele>
      </trkpt>
      <trkpt lat="46.11075" lon="4.77292">
        <ele>172.2</ele>
      </trkpt>
      <trkpt lat="46.1132" lon="4.77335">
        <ele>170.8</ele>
      </trkpt>
      <trkpt lat="46.11494" lon="4.77367">
        <ele>169.6</ele>
      </trkpt>
      <trkpt lat="46.11693" lon="4.77474">
        <ele>169.3</ele>
      </trkpt>
      <trkpt lat="46.1186" lon="4.77592">
        <ele>171</ele>
      </trkpt>
      <trkpt lat="46.12027" lon="4.77674">
        <ele>171.4</ele>
      </trkpt>
      <trkpt lat="46.12181" lon="4.77819">
        <ele>171.4</ele>
      </trkpt>
      <trkpt lat="46.12503" lon="4.78221">
        <ele>171.1</ele>
      </trkpt>
      <trkpt lat="46.12852" lon="4.78684">
        <ele>169.2</ele>
      </trkpt>
      <trkpt lat="46.12998" lon="4.78875">
        <ele>167.1</ele>
      </trkpt>
      <trkpt lat="46.1308" lon="4.78931">
        <ele>167.2</ele>
      </trkpt>
      <trkpt lat="46.13224" lon="4.79122">
        <ele>171</ele>
      </trkpt>
      <trkpt lat="46.13439" lon="4.79328">
        <ele>168.7</ele>
      </trkpt>
      <trkpt lat="46.13802" lon="4.7968">
        <ele>168.4</ele>
      </trkpt>
      <trkpt lat="46.14116" lon="4.8003">
        <ele>168.7</ele>
      </trkpt>
      <trkpt lat="46.1437" lon="4.80202">
        <ele>168.6</ele>
      </trkpt>
      <trkpt lat="46.14622" lon="4.80243">
        <ele>166.5</ele>
      </trkpt>
      <trkpt lat="46.14896" lon="4.80352">
        <ele>168.3</ele>
      </trkpt>
      <trkpt lat="46.15434" lon="4.80527">
        <ele>171.1</ele>
      </trkpt>
      <trkpt lat="46.15797" lon="4.80438">
        <ele>170.3</ele>
      </trkpt>
      <trkpt lat="46.15988" lon="4.80236">
        <ele>167.8</ele>
      </trkpt>
      <trkpt lat="46.16255" lon="4.79773">
        <ele>170.3</ele>
      </trkpt>
      <trkpt lat="46.16433" lon="4.79377">
        <ele>169.5</ele>
      </trkpt>
      <trkpt lat="46.16506" lon="4.79216">
        <ele>171.4</ele>
      </trkpt>
      <trkpt lat="46.16524" lon="4.79119">
        <ele>173.3</ele>
      </trkpt>
      <trkpt lat="46.16563" lon="4.79035">
        <ele>169.9</ele>
      </trkpt>
      <trkpt lat="46.16605" lon="4.79089">
        <ele>169.9</ele>
      </trkpt>
      <trkpt lat="46.16592" lon="4.79027">
        <ele>168.7</ele>
      </trkpt>
      <trkpt lat="46.16449" lon="4.78831">
        <ele>171.3</ele>
      </trkpt>
      <trkpt lat="46.16429" lon="4.78781">
        <ele>174</ele>
      </trkpt>
      <trkpt lat="46.16449" lon="4.78717">
        <ele>172.4</ele>
      </trkpt>
      <trkpt lat="46.16643" lon="4.78349">
        <ele>170.3</ele>
      </trkpt>
      <trkpt lat="46.16797" lon="4.78017">
        <ele>170.1</ele>
      </trkpt>
      <trkpt lat="46.16945" lon="4.77761">
        <ele>170</ele>
      </trkpt>
      <trkpt lat="46.17039" lon="4.77555">
        <ele>171.5</ele>
      </trkpt>
      <trkpt lat="46.16984" lon="4.77229">
        <ele>169.5</ele>
      </trkpt>
      <trkpt lat="46.16914" lon="4.76864">
        <ele>171</ele>
      </trkpt>
      <trkpt lat="46.16922" lon="4.76683">
        <ele>173.1</ele>
      </trkpt>
      <trkpt lat="46.16892" lon="4.76485">
        <ele>171.9</ele>
      </trkpt>
      <trkpt lat="46.16859" lon="4.76377">
        <ele>172.4</ele>
      </trkpt>
      <trkpt lat="46.16861" lon="4.76313">
        <ele>172.4</ele>
      </trkpt>
      <trkpt lat="46.1709" lon="4.76304">
        <ele>171.9</ele>
      </trkpt>
      <trkpt lat="46.17445" lon="4.76255">
        <ele>170.3</ele>
      </trkpt>
      <trkpt lat="46.17486" lon="4.76272">
        <ele>170.8</ele>
      </trkpt>
      <trkpt lat="46.1753" lon="4.76311">
        <ele>171</ele>
      </trkpt>
      <trkpt lat="46.17627" lon="4.76274">
        <ele>170.5</ele>
      </trkpt>
      <trkpt lat="46.17683" lon="4.76261">
        <ele>170.4</ele>
      </trkpt>
      <trkpt lat="46.17688" lon="4.76237">
        <ele>170.8</ele>
      </trkpt>
      <trkpt lat="46.17658" lon="4.76138">
        <ele>171.3</ele>
      </trkpt>
      <trkpt lat="46.1763" lon="4.76091">
        <ele>171.4</ele>
      </trkpt>
      <trkpt lat="46.17637" lon="4.76024">
        <ele>171.7</ele>
      </trkpt>
      <trkpt lat="46.1767" lon="4.75992">
        <ele>171.8</ele>
      </trkpt>
      <trkpt lat="46.17735" lon="4.75792">
        <ele>172.4</ele>
      </trkpt>
      <trkpt lat="46.1778" lon="4.75764">
        <ele>172.8</ele>
      </trkpt>
      <trkpt lat="46.17855" lon="4.75609">
        <ele>172.6</ele>
      </trkpt>
      <trkpt lat="46.17899" lon="4.75943">
        <ele>170</ele>
      </trkpt>
      <trkpt lat="46.17939" lon="4.76052">
        <ele>170.6</ele>
      </trkpt>
      <trkpt lat="46.18005" lon="4.761">
        <ele>170.9</ele>
      </trkpt>
      <trkpt lat="46.18123" lon="4.76078">
        <ele>172</ele>
      </trkpt>
      <trkpt lat="46.18145" lon="4.75689">
        <ele>170.6</ele>
      </trkpt>
      <trkpt lat="46.18173" lon="4.75402">
        <ele>174</ele>
      </trkpt>
      <trkpt lat="46.18258" lon="4.7542">
        <ele>171.2</ele>
      </trkpt>
      <trkpt lat="46.18226" lon="4.75262">
        <ele>174.3</ele>
      </trkpt>
      <trkpt lat="46.18176" lon="4.75013">
        <ele>181.5</ele>
      </trkpt>
      <trkpt lat="46.18168" lon="4.74933">
        <ele>184.4</ele>
      </trkpt>
      <trkpt lat="46.1822" lon="4.74931">
        <ele>184</ele>
      </trkpt>
      <trkpt lat="46.18269" lon="4.7475">
        <ele>186.8</ele>
      </trkpt>
      <trkpt lat="46.18314" lon="4.7466">
        <ele>187.2</ele>
      </trkpt>
      <trkpt lat="46.18575" lon="4.74688">
        <ele>183.8</ele>
      </trkpt>
      <trkpt lat="46.1861" lon="4.74682">
        <ele>184.3</ele>
      </trkpt>
      <trkpt lat="46.18636" lon="4.74608">
        <ele>185.3</ele>
      </trkpt>
      <trkpt lat="46.18645" lon="4.74574">
        <ele>185.5</ele>
      </trkpt>
      <trkpt lat="46.18751" lon="4.74593">
        <ele>186</ele>
      </trkpt>
      <trkpt lat="46.18761" lon="4.74548">
        <ele>185.9</ele>
      </trkpt>
      <trkpt lat="46.18739" lon="4.74387">
        <ele>188.4</ele>
      </trkpt>
      <trkpt lat="46.18796" lon="4.74167">
        <ele>186.6</ele>
      </trkpt>
      <trkpt lat="46.18892" lon="4.74199">
        <ele>187.2</ele>
      </trkpt>
      <trkpt lat="46.19074" lon="4.74219">
        <ele>186.9</ele>
      </trkpt>
      <trkpt lat="46.19199" lon="4.74217">
        <ele>183</ele>
      </trkpt>
      <trkpt lat="46.1922" lon="4.74167">
        <ele>184</ele>
      </trkpt>
      <trkpt lat="46.19214" lon="4.74088">
        <ele>184.8</ele>
      </trkpt>
      <trkpt lat="46.19214" lon="4.73973">
        <ele>185.4</ele>
      </trkpt>
      <trkpt lat="46.19231" lon="4.73974">
        <ele>184.7</ele>
      </trkpt>
      <trkpt lat="46.19224" lon="4.7404">
        <ele>184.4</ele>
      </trkpt>
      <trkpt lat="46.19254" lon="4.74137">
        <ele>184</ele>
      </trkpt>
      <trkpt lat="46.19268" lon="4.74208">
        <ele>183.5</ele>
      </trkpt>
      <trkpt lat="46.19396" lon="4.74309">
        <ele>181.6</ele>
      </trkpt>
      <trkpt lat="46.19414" lon="4.74384">
        <ele>180.4</ele>
      </trkpt>
      <trkpt lat="46.19391" lon="4.74477">
        <ele>179</ele>
      </trkpt>
      <trkpt lat="46.19457" lon="4.74505">
        <ele>178.5</ele>
      </trkpt>
      <trkpt lat="46.19496" lon="4.74369">
        <ele>181.1</ele>
      </trkpt>
      <trkpt lat="46.19524" lon="4.74309">
        <ele>185.4</ele>
      </trkpt>
      <trkpt lat="46.1957" lon="4.74372">
        <ele>186.1</ele>
      </trkpt>
      <trkpt lat="46.19588" lon="4.74388">
        <ele>186.4</ele>
      </trkpt>
      <trkpt lat="46.19596" lon="4.74343">
        <ele>188.8</ele>
      </trkpt>
      <trkpt lat="46.19607" lon="4.74194">
        <ele>196.5</ele>
      </trkpt>
      <trkpt lat="46.19658" lon="4.74197">
        <ele>197.9</ele>
      </trkpt>
      <trkpt lat="46.19667" lon="4.74112">
        <ele>201.3</ele>
      </trkpt>
      <trkpt lat="46.19714" lon="4.74115">
        <ele>200.9</ele>
      </trkpt>
      <trkpt lat="46.1972" lon="4.73971">
        <ele>206.7</ele>
      </trkpt>
      <trkpt lat="46.19822" lon="4.73975">
        <ele>205.7</ele>
      </trkpt>
      <trkpt lat="46.19891" lon="4.73991">
        <ele>204.6</ele>
      </trkpt>
      <trkpt lat="46.19974" lon="4.74028">
        <ele>201.9</ele>
      </trkpt>
      <trkpt lat="46.20021" lon="4.74032">
        <ele>200.4</ele>
      </trkpt>
      <trkpt lat="46.20053" lon="4.74021">
        <ele>199.5</ele>
      </trkpt>
      <trkpt lat="46.20082" lon="4.74027">
        <ele>197.8</ele>
      </trkpt>
      <trkpt lat="46.20107" lon="4.74052">
        <ele>196.1</ele>
      </trkpt>
      <trkpt lat="46.20129" lon="4.74087">
        <ele>194.3</ele>
      </trkpt>
      <trkpt lat="46.20164" lon="4.7417">
        <ele>191</ele>
      </trkpt>
      <trkpt lat="46.20136" lon="4.74234">
        <ele>189.9</ele>
      </trkpt>
      <trkpt lat="46.20166" lon="4.74296">
        <ele>188.9</ele>
      </trkpt>
      <trkpt lat="46.20189" lon="4.74326">
        <ele>189</ele>
      </trkpt>
      <trkpt lat="46.20205" lon="4.74383">
        <ele>188.8</ele>
      </trkpt>
      <trkpt lat="46.202" lon="4.74397">
        <ele>188.5</ele>
      </trkpt>
      <trkpt lat="46.2016" lon="4.74388">
        <ele>187.3</ele>
      </trkpt>
      <trkpt lat="46.20166" lon="4.74529">
        <ele>186</ele>
      </trkpt>
      <trkpt lat="46.20162" lon="4.74551">
        <ele>185.8</ele>
      </trkpt>
      <trkpt lat="46.2015" lon="4.7457">
        <ele>185.4</ele>
      </trkpt>
      <trkpt lat="46.20111" lon="4.74614">
        <ele>184.2</ele>
      </trkpt>
      <trkpt lat="46.20094" lon="4.74654">
        <ele>184.1</ele>
      </trkpt>
      <trkpt lat="46.20151" lon="4.74682">
        <ele>185.5</ele>
      </trkpt>
      <trkpt lat="46.20224" lon="4.74703">
        <ele>188.6</ele>
      </trkpt>
      <trkpt lat="46.20293" lon="4.74697">
        <ele>191.7</ele>
      </trkpt>
      <trkpt lat="46.20368" lon="4.74729">
        <ele>195.2</ele>
      </trkpt>
      <trkpt lat="46.20426" lon="4.7474">
        <ele>196.9</ele>
      </trkpt>
      <trkpt lat="46.20462" lon="4.7474">
        <ele>196.2</ele>
      </trkpt>
      <trkpt lat="46.20484" lon="4.74734">
        <ele>196</ele>
      </trkpt>
      <trkpt lat="46.20561" lon="4.74855">
        <ele>187.9</ele>
      </trkpt>
      <trkpt lat="46.20614" lon="4.74929">
        <ele>186.3</ele>
      </trkpt>
      <trkpt lat="46.20679" lon="4.75014">
        <ele>187</ele>
      </trkpt>
      <trkpt lat="46.20708" lon="4.74962">
        <ele>187.9</ele>
      </trkpt>
      <trkpt lat="46.20724" lon="4.74827">
        <ele>190.1</ele>
      </trkpt>
      <trkpt lat="46.20734" lon="4.74769">
        <ele>191.3</ele>
      </trkpt>
      <trkpt lat="46.20798" lon="4.74676">
        <ele>197.8</ele>
      </trkpt>
      <trkpt lat="46.20836" lon="4.7461">
        <ele>202.5</ele>
      </trkpt>
      <trkpt lat="46.20854" lon="4.7456">
        <ele>203.3</ele>
      </trkpt>
      <trkpt lat="46.2082" lon="4.74525">
        <ele>201</ele>
      </trkpt>
      <trkpt lat="46.20847" lon="4.74491">
        <ele>201.6</ele>
      </trkpt>
      <trkpt lat="46.20871" lon="4.74443">
        <ele>202.5</ele>
      </trkpt>
      <trkpt lat="46.20896" lon="4.74377">
        <ele>204.1</ele>
      </trkpt>
      <trkpt lat="46.20916" lon="4.74324">
        <ele>204.8</ele>
      </trkpt>
      <trkpt lat="46.21009" lon="4.74376">
        <ele>210.1</ele>
      </trkpt>
      <trkpt lat="46.21027" lon="4.74377">
        <ele>210.3</ele>
      </trkpt>
      <trkpt lat="46.21056" lon="4.74395">
        <ele>210.3</ele>
      </trkpt>
      <trkpt lat="46.21076" lon="4.74379">
        <ele>210.8</ele>
      </trkpt>
      <trkpt lat="46.21158" lon="4.74432">
        <ele>210.2</ele>
      </trkpt>
      <trkpt lat="46.21186" lon="4.74338">
        <ele>210.9</ele>
      </trkpt>
      <trkpt lat="46.21249" lon="4.74264">
        <ele>211.8</ele>
      </trkpt>
      <trkpt lat="46.21337" lon="4.74308">
        <ele>213</ele>
      </trkpt>
      <trkpt lat="46.21405" lon="4.7416">
        <ele>214.9</ele>
      </trkpt>
      <trkpt lat="46.21339" lon="4.74095">
        <ele>214.9</ele>
      </trkpt>
      <trkpt lat="46.21366" lon="4.74026">
        <ele>217.4</ele>
      </trkpt>
      <trkpt lat="46.21364" lon="4.73961">
        <ele>219</ele>
      </trkpt>
      <trkpt lat="46.21386" lon="4.73869">
        <ele>221.1</ele>
      </trkpt>
      <trkpt lat="46.2141" lon="4.73819">
        <ele>222</ele>
      </trkpt>
      <trkpt lat="46.21413" lon="4.73725">
        <ele>222.9</ele>
      </trkpt>
      <trkpt lat="46.21423" lon="4.73664">
        <ele>223.4</ele>
      </trkpt>
      <trkpt lat="46.21404" lon="4.73559">
        <ele>221.6</ele>
      </trkpt>
      <trkpt lat="46.21438" lon="4.73559">
        <ele>223.9</ele>
      </trkpt>
      <trkpt lat="46.21476" lon="4.73581">
        <ele>227</ele>
      </trkpt>
      <trkpt lat="46.21502" lon="4.73543">
        <ele>228.6</ele>
      </trkpt>
      <trkpt lat="46.21619" lon="4.73609">
        <ele>237.60000610352</ele>
        <time>2021-04-08T12:33:47.000Z</time>
      </trkpt>
      <trkpt lat="46.21686" lon="4.73651">
        <ele>241.80000305176</ele>
        <time>2021-04-08T12:33:34.000Z</time>
      </trkpt>
      <trkpt lat="46.21749" lon="4.7369">
        <ele>242</ele>
        <time>2021-04-08T12:33:20.000Z</time>
      </trkpt>
      <trkpt lat="46.21753" lon="4.73694">
        <ele>242</ele>
        <time>2021-04-08T12:33:18.000Z</time>
      </trkpt>
      <trkpt lat="46.21766" lon="4.73702">
        <ele>242</ele>
        <time>2021-04-08T12:33:14.000Z</time>
      </trkpt>
      <trkpt lat="46.2178" lon="4.73707">
        <ele>241.80000305176</ele>
        <time>2021-04-08T12:33:11.000Z</time>
      </trkpt>
      <trkpt lat="46.2186" lon="4.73726">
        <ele>240.80000305176</ele>
        <time>2021-04-08T12:32:55.000Z</time>
      </trkpt>
      <trkpt lat="46.21935" lon="4.73708">
        <ele>239.60000610352</ele>
        <time>2021-04-08T12:32:39.000Z</time>
      </trkpt>
      <trkpt lat="46.21952" lon="4.73703">
        <ele>239.39999389648</ele>
        <time>2021-04-08T12:32:35.000Z</time>
      </trkpt>
      <trkpt lat="46.21966" lon="4.73707">
        <ele>238.60000610352</ele>
        <time>2021-04-08T12:32:31.000Z</time>
      </trkpt>
      <trkpt lat="46.21968" lon="4.7371">
        <ele>238.19999694824</ele>
        <time>2021-04-08T12:32:30.000Z</time>
      </trkpt>
      <trkpt lat="46.21971" lon="4.73729">
        <ele>236.39999389648</ele>
        <time>2021-04-08T12:32:26.000Z</time>
      </trkpt>
      <trkpt lat="46.21972" lon="4.7374">
        <ele>235</ele>
        <time>2021-04-08T12:32:24.000Z</time>
      </trkpt>
      <trkpt lat="46.21975" lon="4.73762">
        <ele>232</ele>
        <time>2021-04-08T12:32:20.000Z</time>
      </trkpt>
      <trkpt lat="46.21975" lon="4.73792">
        <ele>228</ele>
        <time>2021-04-08T12:32:15.000Z</time>
      </trkpt>
      <trkpt lat="46.21976" lon="4.73821">
        <ele>224.19999694824</ele>
        <time>2021-04-08T12:32:10.000Z</time>
      </trkpt>
      <trkpt lat="46.21977" lon="4.73862">
        <ele>219.60000610352</ele>
        <time>2021-04-08T12:32:03.000Z</time>
      </trkpt>
      <trkpt lat="46.21984" lon="4.7396">
        <ele>211.19999694824</ele>
        <time>2021-04-08T12:31:49.000Z</time>
      </trkpt>
      <trkpt lat="46.21989" lon="4.73971">
        <ele>210.60000610352</ele>
        <time>2021-04-08T12:31:45.000Z</time>
      </trkpt>
      <trkpt lat="46.22021" lon="4.73926">
        <ele>211.80000305176</ele>
        <time>2021-04-08T12:31:34.000Z</time>
      </trkpt>
      <trkpt lat="46.22033" lon="4.73915">
        <ele>212.19999694824</ele>
        <time>2021-04-08T12:31:31.000Z</time>
      </trkpt>
      <trkpt lat="46.2207" lon="4.73883">
        <ele>212.80000305176</ele>
        <time>2021-04-08T12:31:22.000Z</time>
      </trkpt>
      <trkpt lat="46.221" lon="4.73847">
        <ele>213.80000305176</ele>
        <time>2021-04-08T12:31:15.000Z</time>
      </trkpt>
      <trkpt lat="46.22115" lon="4.73841">
        <ele>213.60000610352</ele>
        <time>2021-04-08T12:31:11.000Z</time>
      </trkpt>
      <trkpt lat="46.22138" lon="4.73873">
        <ele>211.60000610352</ele>
        <time>2021-04-08T12:31:03.000Z</time>
      </trkpt>
      <trkpt lat="46.22171" lon="4.7391">
        <ele>210</ele>
        <time>2021-04-08T12:30:55.000Z</time>
      </trkpt>
      <trkpt lat="46.22217" lon="4.73991">
        <ele>207.60000610352</ele>
        <time>2021-04-08T12:30:42.000Z</time>
      </trkpt>
      <trkpt lat="46.22223" lon="4.74032">
        <ele>206</ele>
        <time>2021-04-08T12:30:36.000Z</time>
      </trkpt>
      <trkpt lat="46.22194" lon="4.74111">
        <ele>204.19999694824</ele>
        <time>2021-04-08T12:30:22.000Z</time>
      </trkpt>
      <trkpt lat="46.22143" lon="4.74245">
        <ele>205.19999694824</ele>
        <time>2021-04-08T12:30:03.000Z</time>
      </trkpt>
      <trkpt lat="46.22105" lon="4.74336">
        <ele>206</ele>
        <time>2021-04-08T12:29:50.000Z</time>
      </trkpt>
      <trkpt lat="46.22096" lon="4.74356">
        <ele>205.19999694824</ele>
        <time>2021-04-08T12:29:47.000Z</time>
      </trkpt>
      <trkpt lat="46.22082" lon="4.7438">
        <ele>205</ele>
        <time>2021-04-08T12:29:43.000Z</time>
      </trkpt>
      <trkpt lat="46.22078" lon="4.74386">
        <ele>205</ele>
        <time>2021-04-08T12:29:42.000Z</time>
      </trkpt>
      <trkpt lat="46.22064" lon="4.7441">
        <ele>204.60000610352</ele>
        <time>2021-04-08T12:29:35.000Z</time>
      </trkpt>
      <trkpt lat="46.22078" lon="4.7442">
        <ele>205</ele>
        <time>2021-04-08T12:29:32.000Z</time>
      </trkpt>
      <trkpt lat="46.22101" lon="4.74434">
        <ele>205.39999389648</ele>
        <time>2021-04-08T12:29:28.000Z</time>
      </trkpt>
      <trkpt lat="46.22144" lon="4.74466">
        <ele>207.39999389648</ele>
        <time>2021-04-08T12:29:19.000Z</time>
      </trkpt>
      <trkpt lat="46.22145" lon="4.74478">
        <ele>208</ele>
        <time>2021-04-08T12:29:16.000Z</time>
      </trkpt>
      <trkpt lat="46.22147" lon="4.74535">
        <ele>211.19999694824</ele>
        <time>2021-04-08T12:29:08.000Z</time>
      </trkpt>
      <trkpt lat="46.22146" lon="4.74555">
        <ele>212.60000610352</ele>
        <time>2021-04-08T12:29:06.000Z</time>
      </trkpt>
      <trkpt lat="46.22169" lon="4.74618">
        <ele>218.39999389648</ele>
        <time>2021-04-08T12:28:57.000Z</time>
      </trkpt>
      <trkpt lat="46.2216" lon="4.74647">
        <ele>218</ele>
        <time>2021-04-08T12:28:51.000Z</time>
      </trkpt>
      <trkpt lat="46.22154" lon="4.74671">
        <ele>218.39999389648</ele>
        <time>2021-04-08T12:28:47.000Z</time>
      </trkpt>
      <trkpt lat="46.22153" lon="4.74676">
        <ele>218.39999389648</ele>
        <time>2021-04-08T12:28:46.000Z</time>
      </trkpt>
      <trkpt lat="46.22149" lon="4.74681">
        <ele>218</ele>
        <time>2021-04-08T12:28:44.000Z</time>
      </trkpt>
      <trkpt lat="46.22145" lon="4.74679">
        <ele>217.60000610352</ele>
        <time>2021-04-08T12:28:42.000Z</time>
      </trkpt>
      <trkpt lat="46.22109" lon="4.74621">
        <ele>211</ele>
        <time>2021-04-08T12:28:28.000Z</time>
      </trkpt>
      <trkpt lat="46.22092" lon="4.74624">
        <ele>209.39999389648</ele>
        <time>2021-04-08T12:28:23.000Z</time>
      </trkpt>
      <trkpt lat="46.22078" lon="4.7466">
        <ele>208.80000305176</ele>
        <time>2021-04-08T12:28:17.000Z</time>
      </trkpt>
      <trkpt lat="46.22048" lon="4.74691">
        <ele>207.60000610352</ele>
        <time>2021-04-08T12:28:09.000Z</time>
      </trkpt>
      <trkpt lat="46.22029" lon="4.74722">
        <ele>207.39999389648</ele>
        <time>2021-04-08T12:28:03.000Z</time>
      </trkpt>
      <trkpt lat="46.21995" lon="4.74779">
        <ele>206</ele>
        <time>2021-04-08T12:27:52.000Z</time>
      </trkpt>
      <trkpt lat="46.21958" lon="4.74857">
        <ele>205.39999389648</ele>
        <time>2021-04-08T12:27:38.000Z</time>
      </trkpt>
      <trkpt lat="46.21925" lon="4.74898">
        <ele>204.80000305176</ele>
        <time>2021-04-08T12:27:27.000Z</time>
      </trkpt>
      <trkpt lat="46.21923" lon="4.74904">
        <ele>205</ele>
        <time>2021-04-08T12:27:26.000Z</time>
      </trkpt>
      <trkpt lat="46.21882" lon="4.74992">
        <ele>203.60000610352</ele>
        <time>2021-04-08T12:27:12.000Z</time>
      </trkpt>
      <trkpt lat="46.21851" lon="4.75026">
        <ele>203</ele>
        <time>2021-04-08T12:27:04.000Z</time>
      </trkpt>
      <trkpt lat="46.21848" lon="4.75031">
        <ele>202.80000305176</ele>
        <time>2021-04-08T12:27:03.000Z</time>
      </trkpt>
      <trkpt lat="46.21843" lon="4.75041">
        <ele>202.19999694824</ele>
        <time>2021-04-08T12:27:01.000Z</time>
      </trkpt>
      <trkpt lat="46.21841" lon="4.75045">
        <ele>202</ele>
        <time>2021-04-08T12:27:00.000Z</time>
      </trkpt>
      <trkpt lat="46.21781" lon="4.75007">
        <ele>200</ele>
        <time>2021-04-08T12:26:45.000Z</time>
      </trkpt>
      <trkpt lat="46.21774" lon="4.75">
        <ele>200</ele>
        <time>2021-04-08T12:26:43.000Z</time>
      </trkpt>
      <trkpt lat="46.21759" lon="4.75004">
        <ele>199.60000610352</ele>
        <time>2021-04-08T12:26:36.000Z</time>
      </trkpt>
      <trkpt lat="46.21753" lon="4.75015">
        <ele>199</ele>
        <time>2021-04-08T12:26:34.000Z</time>
      </trkpt>
      <trkpt lat="46.21713" lon="4.75113">
        <ele>197.80000305176</ele>
        <time>2021-04-08T12:26:20.000Z</time>
      </trkpt>
      <trkpt lat="46.21696" lon="4.75145">
        <ele>198.39999389648</ele>
        <time>2021-04-08T12:26:15.000Z</time>
      </trkpt>
      <trkpt lat="46.21661" lon="4.75248">
        <ele>198.80000305176</ele>
        <time>2021-04-08T12:26:00.000Z</time>
      </trkpt>
      <trkpt lat="46.21597" lon="4.75326">
        <ele>198.19999694824</ele>
        <time>2021-04-08T12:25:44.000Z</time>
      </trkpt>
      <trkpt lat="46.21564" lon="4.75426">
        <ele>197.19999694824</ele>
        <time>2021-04-08T12:25:30.000Z</time>
      </trkpt>
      <trkpt lat="46.21548" lon="4.75519">
        <ele>199.39999389648</ele>
        <time>2021-04-08T12:25:17.000Z</time>
      </trkpt>
      <trkpt lat="46.2154" lon="4.75553">
        <ele>199.19999694824</ele>
        <time>2021-04-08T12:25:12.000Z</time>
      </trkpt>
      <trkpt lat="46.21525" lon="4.7558">
        <ele>197.60000610352</ele>
        <time>2021-04-08T12:25:07.000Z</time>
      </trkpt>
      <trkpt lat="46.215" lon="4.75611">
        <ele>195.60000610352</ele>
        <time>2021-04-08T12:25:00.000Z</time>
      </trkpt>
      <trkpt lat="46.2149" lon="4.7562">
        <ele>195</ele>
        <time>2021-04-08T12:24:55.000Z</time>
      </trkpt>
      <trkpt lat="46.21426" lon="4.75675">
        <ele>191.4</ele>
      </trkpt>
      <trkpt lat="46.21397" lon="4.75713">
        <ele>191</ele>
      </trkpt>
      <trkpt lat="46.21352" lon="4.75692">
        <ele>189.5</ele>
      </trkpt>
      <trkpt lat="46.21232" lon="4.75608">
        <ele>192.8</ele>
      </trkpt>
      <trkpt lat="46.21224" lon="4.75625">
        <ele>192.9</ele>
      </trkpt>
    </trkseg>
  </trk>
</gpx>